Darstellungsparameter: Aktuell verwendete Einstellungen:
Skalierung der Graphiken ... ?
xyx+y,   Skalierungsfaktor:      Skalierung: Modus: x, Faktor: 1
Darstellungszeitraum ... ?
Vom - - bis: - -   Zeitraum: 20.06.2014 - 26.06.2014
Min/Max/Avg-Anzeige ... ?
Zeige MMA aktuell
Zeige MMA Monat
Zeige MMA alles
Zeige --A aktuell
Zeige --A Monat
Zeige --A alles
Keine MMA-Anzeige
MMA:
Average (ber die Originaldaten)
MMA-Basis: 20.06.2014 - 26.06.2014
Quicknavigation für Darstellung... ?
Tage:      1T, 2T, 3T, 5T -1T -2T -3T -5T +1T +2T +3T +5T
Wochen: 1W, 2W, 3W -1W -2W -3W +1W +2W +3W
Monate: 1M, 3M, 6M -1M -3M -6M +1M +3M +6M
Jahre:    1J, 3J, 5J, 10J -1J -3J -5J -10J +1J +3J +5J +10J
Nutze für die Darstellung ... ?
Originaldaten oder Mittelwerte auf ...
Stundenbasis Tagesbasis Wochenbasis
Monatsbasis Jahresbasis      Datenbasis: Original-Daten
Darstellen als:
Statistik (Auto) Statistik J:M      Darstellung:
Zur Graphik,    zurück zur Übersicht aller Sensoren.
 
Tabellarische Datenbersicht: ?
 
Sensor: Nr:Datum:Temp:Abs-Feuchte:Windchill:Wind:
Aussen-T/F 1 20-06-2014 06:30:00 13.1 C 9.93 g/m*3 13.1 C 8.1 km/h
2 20-06-2014 06:35:00 13.1 C 9.93 g/m*3 13.1 C 9.7 km/h
3 20-06-2014 06:40:00 13.1 C 9.93 g/m*3 13.1 C 8.1 km/h
4 20-06-2014 06:45:00 13.1 C 9.93 g/m*3 13.1 C 4.8 km/h
5 20-06-2014 06:50:00 13.1 C 9.93 g/m*3 13.1 C 4.8 km/h
6 20-06-2014 06:55:00 13.1 C 9.93 g/m*3 13.1 C 8.1 km/h
7 20-06-2014 07:00:00 13.1 C 9.93 g/m*3 13.1 C 9.7 km/h
8 20-06-2014 07:05:00 13.1 C 9.93 g/m*3 13.1 C 4.8 km/h
9 20-06-2014 07:10:00 13.2 C 9.99 g/m*3 13.2 C 6.4 km/h
10 20-06-2014 07:15:00 13.2 C 9.87 g/m*3 13.2 C 8.1 km/h
11 20-06-2014 07:20:00 13.3 C 9.94 g/m*3 13.3 C 9.7 km/h
12 20-06-2014 07:25:00 13.3 C 9.94 g/m*3 13.3 C 6.4 km/h
13 20-06-2014 07:30:00 13.3 C 9.94 g/m*3 13.3 C 8.1 km/h
14 20-06-2014 07:35:00 13.3 C 9.94 g/m*3 13.3 C 4.8 km/h
15 20-06-2014 07:40:00 13.3 C 9.94 g/m*3 13.3 C 3.2 km/h
16 20-06-2014 07:45:00 13.3 C 9.94 g/m*3 13.3 C 6.4 km/h
17 20-06-2014 07:50:00 13.3 C 9.82 g/m*3 13.3 C 11.3 km/h
18 20-06-2014 07:55:00 13.3 C 9.82 g/m*3 13.3 C 8.1 km/h
19 20-06-2014 08:00:00 13.3 C 9.82 g/m*3 13.3 C 4.8 km/h
20 20-06-2014 08:05:00 13.4 C 9.88 g/m*3 13.4 C 6.4 km/h
21 20-06-2014 08:10:00 13.4 C 9.88 g/m*3 13.4 C 6.4 km/h
22 20-06-2014 08:15:00 13.4 C 9.88 g/m*3 13.4 C 9.7 km/h
23 20-06-2014 08:20:00 13.5 C 9.94 g/m*3 13.5 C 6.4 km/h
24 20-06-2014 08:25:00 13.6 C 9.89 g/m*3 13.6 C 4.8 km/h
25 20-06-2014 08:30:00 13.6 C 9.77 g/m*3 13.6 C 9.7 km/h
Sensor: Nr:Datum:Temp:Abs-Feuchte:Windchill:Wind:
Aussen-T/F 26 20-06-2014 08:35:00 13.6 C 9.89 g/m*3 13.6 C 4.8 km/h
27 20-06-2014 08:40:00 13.6 C 10 g/m*3 13.6 C 11.3 km/h
28 20-06-2014 08:45:00 13.3 C 9.94 g/m*3 13.3 C 9.7 km/h
29 20-06-2014 08:50:00 13.3 C 10.17 g/m*3 13.3 C 4.8 km/h
30 20-06-2014 08:55:00 13.2 C 10.1 g/m*3 13.2 C 6.4 km/h
31 20-06-2014 09:00:00 13.2 C 10.1 g/m*3 13.2 C 8.1 km/h
32 20-06-2014 09:05:00 13.2 C 10.1 g/m*3 13.2 C 4.8 km/h
33 20-06-2014 09:10:00 13.3 C 10.17 g/m*3 13.3 C 4.8 km/h
34 20-06-2014 09:15:00 13.4 C 10.35 g/m*3 13.4 C 4.8 km/h
35 20-06-2014 09:20:00 13.5 C 10.18 g/m*3 13.5 C 6.4 km/h
36 20-06-2014 09:25:00 13.6 C 10.12 g/m*3 13.6 C 9.7 km/h
37 20-06-2014 09:30:00 13.7 C 10.18 g/m*3 13.7 C 8.1 km/h
38 20-06-2014 09:35:00 13.8 C 10.13 g/m*3 13.8 C 12.9 km/h
39 20-06-2014 09:40:00 13.8 C 10.01 g/m*3 13.8 C 12.9 km/h
40 20-06-2014 09:45:00 13.9 C 10.19 g/m*3 13.9 C 4.8 km/h
41 20-06-2014 09:50:00 14.1 C 10.07 g/m*3 14.1 C 6.4 km/h
42 20-06-2014 09:55:00 14.2 C 9.89 g/m*3 14.2 C 8.1 km/h
43 20-06-2014 10:00:00 14.5 C 10.07 g/m*3 14.5 C 8.1 km/h
44 20-06-2014 10:05:00 14.8 C 10.26 g/m*3 14.8 C 9.7 km/h
45 20-06-2014 10:10:00 15 C 10.13 g/m*3 15 C 12.9 km/h
46 20-06-2014 10:15:00 15.1 C 9.8 g/m*3 15.1 C 8.1 km/h
47 20-06-2014 10:20:00 15.2 C 10.12 g/m*3 15.2 C 8.1 km/h
48 20-06-2014 10:25:00 15.4 C 10.25 g/m*3 15.4 C 11.3 km/h
49 20-06-2014 10:30:00 15.6 C 10.11 g/m*3 15.6 C 9.7 km/h
50 20-06-2014 10:35:00 15.7 C 10.03 g/m*3 15.7 C 8.1 km/h
Sensor: Nr:Datum:Temp:Abs-Feuchte:Windchill:Wind:
Aussen-T/F 51 20-06-2014 10:40:00 15.9 C 10.02 g/m*3 15.9 C 9.7 km/h
52 20-06-2014 10:45:00 15.7 C 9.5 g/m*3 15.7 C 12.9 km/h
53 20-06-2014 10:50:00 15.3 C 9.4 g/m*3 15.3 C 14.5 km/h
54 20-06-2014 10:55:00 15.1 C 9.29 g/m*3 15.1 C 8.1 km/h
55 20-06-2014 11:00:00 14.9 C 9.43 g/m*3 14.9 C 9.7 km/h
56 20-06-2014 11:05:00 14.9 C 9.56 g/m*3 14.9 C 8.1 km/h
57 20-06-2014 11:10:00 14.9 C 9.69 g/m*3 14.9 C 4.8 km/h
58 20-06-2014 11:15:00 14.9 C 9.69 g/m*3 14.9 C 8.1 km/h
59 20-06-2014 11:20:00 14.9 C 9.56 g/m*3 14.9 C 12.9 km/h
60 20-06-2014 11:25:00 14.8 C 9.63 g/m*3 14.8 C 6.4 km/h
61 20-06-2014 11:30:00 14.8 C 9.63 g/m*3 14.8 C 8.1 km/h
62 20-06-2014 11:35:00 14.9 C 9.69 g/m*3 14.9 C 9.7 km/h
63 20-06-2014 11:40:00 14.9 C 9.81 g/m*3 14.9 C 6.4 km/h
64 20-06-2014 11:45:00 14.9 C 9.94 g/m*3 14.9 C 8.1 km/h
65 20-06-2014 11:50:00 14.9 C 9.81 g/m*3 14.9 C 8.1 km/h
66 20-06-2014 11:55:00 15.1 C 9.68 g/m*3 15.1 C 9.7 km/h
67 20-06-2014 12:00:00 15.2 C 9.86 g/m*3 15.2 C 6.4 km/h
68 20-06-2014 12:05:00 15.3 C 9.92 g/m*3 15.3 C 8.1 km/h
69 20-06-2014 12:10:00 15.3 C 9.92 g/m*3 15.3 C 8.1 km/h
70 20-06-2014 12:15:00 15.3 C 9.79 g/m*3 15.3 C 6.4 km/h
71 20-06-2014 12:20:00 15.4 C 9.99 g/m*3 15.4 C 4.8 km/h
72 20-06-2014 12:25:00 15.4 C 9.99 g/m*3 15.4 C 1.6 km/h
73 20-06-2014 12:30:00 15.6 C 9.97 g/m*3 15.6 C 4.8 km/h
74 20-06-2014 12:35:00 15.8 C 10.23 g/m*3 15.8 C 8.1 km/h
75 20-06-2014 12:40:00 15.9 C 10.02 g/m*3 15.9 C 4.8 km/h
Sensor: Nr:Datum:Temp:Abs-Feuchte:Windchill:Wind:
Aussen-T/F 76 20-06-2014 12:45:00 16.1 C 10.01 g/m*3 16.1 C 6.4 km/h
77 20-06-2014 12:50:00 16.1 C 9.6 g/m*3 16.1 C 8.1 km/h
78 20-06-2014 12:55:00 16 C 9.67 g/m*3 16 C 11.3 km/h
79 20-06-2014 13:00:00 15.9 C 9.62 g/m*3 15.9 C 11.3 km/h
80 20-06-2014 13:05:00 15.9 C 9.75 g/m*3 15.9 C 11.3 km/h
81 20-06-2014 13:10:00 15.8 C 9.69 g/m*3 15.8 C 4.8 km/h
82 20-06-2014 13:15:00 15.7 C 9.63 g/m*3 15.7 C 8.1 km/h
83 20-06-2014 13:20:00 15.4 C 9.33 g/m*3 15.4 C 17.7 km/h
84 20-06-2014 13:25:00 15.3 C 9.4 g/m*3 15.3 C 16.1 km/h
85 20-06-2014 13:30:00 15.2 C 9.48 g/m*3 15.2 C 4.8 km/h
86 20-06-2014 13:35:00 15.3 C 9.53 g/m*3 15.3 C 6.4 km/h
87 20-06-2014 13:40:00 15.4 C 9.46 g/m*3 15.4 C 6.4 km/h
88 20-06-2014 13:45:00 15.7 C 9.63 g/m*3 15.7 C 6.4 km/h
89 20-06-2014 13:50:00 15.8 C 9.42 g/m*3 15.8 C 11.3 km/h
90 20-06-2014 13:55:00 16.1 C 9.46 g/m*3 16.1 C 4.8 km/h
91 20-06-2014 14:00:00 16.3 C 9.43 g/m*3 16.3 C 8.1 km/h
92 20-06-2014 14:05:00 16.5 C 9.27 g/m*3 16.5 C 11.3 km/h
93 20-06-2014 14:10:00 16.5 C 9.27 g/m*3 16.5 C 9.7 km/h
94 20-06-2014 14:15:00 16.3 C 9.43 g/m*3 16.3 C 12.9 km/h
95 20-06-2014 14:20:00 16.1 C 9.32 g/m*3 16.1 C 12.9 km/h
96 20-06-2014 14:25:00 15.9 C 9.89 g/m*3 15.9 C 6.4 km/h
97 20-06-2014 14:30:00 15.6 C 9.84 g/m*3 15.6 C 9.7 km/h
98 20-06-2014 14:35:00 15.3 C 9.66 g/m*3 15.3 C 6.4 km/h
99 20-06-2014 14:40:00 15.2 C 9.73 g/m*3 15.2 C 3.2 km/h
100 20-06-2014 14:45:00 15.2 C 9.73 g/m*3 15.2 C 6.4 km/h
Sensor: Nr:Datum:Temp:Abs-Feuchte:Windchill:Wind:
Aussen-T/F 101 20-06-2014 14:50:00 15.2 C 9.48 g/m*3 15.2 C 6.4 km/h
102 20-06-2014 14:55:00 15.3 C 9.4 g/m*3 15.3 C 6.4 km/h
103 20-06-2014 15:00:00 15.5 C 9.25 g/m*3 15.5 C 9.7 km/h
104 20-06-2014 15:05:00 15.6 C 9.31 g/m*3 15.6 C 8.1 km/h
105 20-06-2014 15:10:00 15.7 C 9.5 g/m*3 15.7 C 3.2 km/h
106 20-06-2014 15:15:00 15.8 C 9.56 g/m*3 15.8 C 6.4 km/h
107 20-06-2014 15:20:00 16 C 9.4 g/m*3 16 C 8.1 km/h
108 20-06-2014 15:25:00 16.2 C 9.52 g/m*3 16.2 C 6.4 km/h
109 20-06-2014 15:30:00 16.3 C 9.3 g/m*3 16.3 C 8.1 km/h
110 20-06-2014 15:35:00 16.5 C 9.41 g/m*3 16.5 C 8.1 km/h
111 20-06-2014 15:40:00 16.7 C 9.66 g/m*3 16.7 C 8.1 km/h
112 20-06-2014 15:45:00 16.9 C 9.49 g/m*3 16.9 C 6.4 km/h
113 20-06-2014 15:50:00 17.2 C 9.67 g/m*3 17.2 C 4.8 km/h
114 20-06-2014 15:55:00 17.6 C 10.05 g/m*3 17.6 C 4.8 km/h
115 20-06-2014 16:00:00 17.8 C 9.71 g/m*3 17.8 C 9.7 km/h
116 20-06-2014 16:05:00 17.8 C 9.56 g/m*3 17.8 C 11.3 km/h
117 20-06-2014 16:10:00 17.7 C 9.66 g/m*3 17.7 C 9.7 km/h
118 20-06-2014 16:15:00 17.8 C 9.56 g/m*3 17.8 C 9.7 km/h
119 20-06-2014 16:20:00 17.8 C 9.71 g/m*3 17.8 C 6.4 km/h
120 20-06-2014 16:25:00 17.8 C 9.56 g/m*3 17.8 C 8.1 km/h
121 20-06-2014 16:30:00 17.9 C 9.62 g/m*3 17.9 C 6.4 km/h
122 20-06-2014 16:35:00 17.9 C 9.31 g/m*3 17.9 C 4.8 km/h
123 20-06-2014 16:40:00 17.8 C 8.95 g/m*3 17.8 C 8.1 km/h
124 20-06-2014 16:45:00 17.7 C 9.2 g/m*3 17.7 C 6.4 km/h
125 20-06-2014 16:50:00 17.6 C 9 g/m*3 17.6 C 4.8 km/h
Sensor: Nr:Datum:Temp:Abs-Feuchte:Windchill:Wind:
Aussen-T/F 126 20-06-2014 16:55:00 17.7 C 9.35 g/m*3 17.7 C 4.8 km/h
127 20-06-2014 17:00:00 17.9 C 9.31 g/m*3 17.9 C 6.4 km/h
128 20-06-2014 17:05:00 18.1 C 9.12 g/m*3 18.1 C 9.7 km/h
129 20-06-2014 17:10:00 18.2 C 9.01 g/m*3 18.2 C 8.1 km/h
130 20-06-2014 17:15:00 18.3 C 9.07 g/m*3 18.3 C 11.3 km/h
131 20-06-2014 17:20:00 18.1 C 8.81 g/m*3 18.1 C 9.7 km/h
132 20-06-2014 17:25:00 17.8 C 8.8 g/m*3 17.8 C 14.5 km/h
133 20-06-2014 17:30:00 17.7 C 8.9 g/m*3 17.7 C 8.1 km/h
134 20-06-2014 17:35:00 17.6 C 9 g/m*3 17.6 C 4.8 km/h
135 20-06-2014 17:40:00 17.4 C 8.89 g/m*3 17.4 C 9.7 km/h
136 20-06-2014 17:45:00 17.2 C 8.93 g/m*3 17.2 C 6.4 km/h
137 20-06-2014 17:50:00 17.1 C 8.88 g/m*3 17.1 C 9.7 km/h
138 20-06-2014 17:55:00 16.9 C 8.77 g/m*3 16.9 C 11.3 km/h
139 20-06-2014 18:00:00 16.9 C 8.92 g/m*3 16.9 C 6.4 km/h
140 20-06-2014 18:05:00 16.8 C 8.86 g/m*3 16.8 C 6.4 km/h
141 20-06-2014 18:10:00 16.8 C 8.86 g/m*3 16.8 C 6.4 km/h
142 20-06-2014 18:15:00 16.8 C 9.01 g/m*3 16.8 C 4.8 km/h
143 20-06-2014 18:20:00 16.8 C 8.86 g/m*3 16.8 C 8.1 km/h
144 20-06-2014 18:25:00 16.8 C 8.86 g/m*3 16.8 C 3.2 km/h
145 20-06-2014 18:30:00 16.9 C 8.92 g/m*3 16.9 C 4.8 km/h
146 20-06-2014 18:35:00 16.9 C 8.92 g/m*3 16.9 C 3.2 km/h
147 20-06-2014 18:40:00 16.9 C 8.92 g/m*3 16.9 C 6.4 km/h
148 20-06-2014 18:45:00 17 C 8.83 g/m*3 17 C 4.8 km/h
149 20-06-2014 18:50:00 17.1 C 8.88 g/m*3 17.1 C 8.1 km/h
150 20-06-2014 18:55:00 17.1 C 8.73 g/m*3 17.1 C 6.4 km/h
Sensor: Nr:Datum:Temp:Abs-Feuchte:Windchill:Wind:
Aussen-T/F 151 20-06-2014 19:00:00 17.1 C 8.88 g/m*3 17.1 C 11.3 km/h
152 20-06-2014 19:05:00 17.1 C 8.73 g/m*3 17.1 C 3.2 km/h
153 20-06-2014 19:10:00 17.1 C 8.88 g/m*3 17.1 C 3.2 km/h
154 20-06-2014 19:15:00 17.2 C 8.93 g/m*3 17.2 C 1.6 km/h
155 20-06-2014 19:20:00 17.3 C 8.99 g/m*3 17.3 C 1.6 km/h
156 20-06-2014 19:25:00 17.3 C 8.99 g/m*3 17.3 C 1.6 km/h
157 20-06-2014 19:30:00 17.4 C 9.04 g/m*3 17.4 C 1.6 km/h
158 20-06-2014 19:35:00 17.4 C 8.89 g/m*3 17.4 C 1.6 km/h
159 20-06-2014 19:40:00 17.4 C 8.89 g/m*3 17.4 C 6.4 km/h
160 20-06-2014 19:45:00 17.4 C 8.74 g/m*3 17.4 C 6.4 km/h
161 20-06-2014 19:50:00 17.4 C 9.04 g/m*3 17.4 C 6.4 km/h
162 20-06-2014 19:55:00 17.4 C 8.74 g/m*3 17.4 C 8.1 km/h
163 20-06-2014 20:00:00 17.4 C 8.3 g/m*3 17.4 C 11.3 km/h
164 20-06-2014 20:05:00 17.5 C 8.5 g/m*3 17.5 C 8.1 km/h
165 20-06-2014 20:10:00 17.5 C 8.65 g/m*3 17.5 C 3.2 km/h
166 20-06-2014 20:15:00 17.5 C 8.5 g/m*3 17.5 C 3.2 km/h
167 20-06-2014 20:20:00 17.4 C 8.6 g/m*3 17.4 C 1.6 km/h
168 20-06-2014 20:25:00 17.3 C 8.4 g/m*3 17.3 C 9.7 km/h
169 20-06-2014 20:30:00 17.2 C 8.64 g/m*3 17.2 C 9.7 km/h
170 20-06-2014 20:35:00 17 C 8.68 g/m*3 17 C 3.2 km/h
171 20-06-2014 20:40:00 16.5 C 9.13 g/m*3 16.5 C 0 km/h
172 20-06-2014 20:45:00 16 C 9.26 g/m*3 16 C 0 km/h
173 20-06-2014 20:50:00 15.7 C 8.96 g/m*3 15.7 C 3.2 km/h
174 20-06-2014 20:55:00 15.5 C 9.25 g/m*3 15.5 C 1.6 km/h
175 20-06-2014 21:00:00 15.3 C 9.14 g/m*3 15.3 C 4.8 km/h
Sensor: Nr:Datum:Temp:Abs-Feuchte:Windchill:Wind:
Aussen-T/F 176 20-06-2014 21:05:00 15.3 C 9.01 g/m*3 15.3 C 3.2 km/h
177 20-06-2014 21:10:00 15.3 C 9.27 g/m*3 15.3 C 0 km/h
178 20-06-2014 21:15:00 15.3 C 9.14 g/m*3 15.3 C 0 km/h
179 20-06-2014 21:20:00 15.3 C 8.75 g/m*3 15.3 C 8.1 km/h
180 20-06-2014 21:25:00 15.6 C 8.78 g/m*3 15.6 C 4.8 km/h
181 20-06-2014 21:30:00 15.8 C 8.75 g/m*3 15.8 C 6.4 km/h
182 20-06-2014 21:35:00 15.9 C 8.8 g/m*3 15.9 C 3.2 km/h
183 20-06-2014 21:40:00 15.9 C 8.8 g/m*3 15.9 C 3.2 km/h
184 20-06-2014 21:45:00 16 C 8.72 g/m*3 16 C 4.8 km/h
185 20-06-2014 21:50:00 16.1 C 8.77 g/m*3 16.1 C 9.7 km/h
186 20-06-2014 21:55:00 16.1 C 8.77 g/m*3 16.1 C 8.1 km/h
187 20-06-2014 22:00:00 16.1 C 8.77 g/m*3 16.1 C 8.1 km/h
188 20-06-2014 22:05:00 16.1 C 8.77 g/m*3 16.1 C 6.4 km/h
189 20-06-2014 22:10:00 16 C 8.86 g/m*3 16 C 6.4 km/h
190 20-06-2014 22:15:00 16 C 8.86 g/m*3 16 C 8.1 km/h
191 20-06-2014 22:20:00 15.9 C 8.94 g/m*3 15.9 C 1.6 km/h
192 20-06-2014 22:25:00 15.9 C 8.94 g/m*3 15.9 C 3.2 km/h
193 20-06-2014 22:30:00 15.8 C 8.88 g/m*3 15.8 C 8.1 km/h
194 20-06-2014 22:35:00 15.8 C 8.88 g/m*3 15.8 C 4.8 km/h
195 20-06-2014 22:40:00 15.7 C 8.96 g/m*3 15.7 C 4.8 km/h
196 20-06-2014 22:45:00 15.7 C 8.96 g/m*3 15.7 C 4.8 km/h
197 20-06-2014 22:50:00 15.6 C 8.91 g/m*3 15.6 C 4.8 km/h
198 20-06-2014 22:55:00 15.6 C 8.91 g/m*3 15.6 C 3.2 km/h
199 20-06-2014 23:00:00 15.5 C 8.99 g/m*3 15.5 C 1.6 km/h
200 20-06-2014 23:05:00 15.4 C 8.93 g/m*3 15.4 C 3.2 km/h
Sensor: Nr:Datum:Temp:Abs-Feuchte:Windchill:Wind:
Aussen-T/F 201 20-06-2014 23:10:00 15.4 C 8.93 g/m*3 15.4 C 3.2 km/h
202 20-06-2014 23:15:00 15.4 C 8.93 g/m*3 15.4 C 6.4 km/h
203 20-06-2014 23:20:00 15.4 C 9.07 g/m*3 15.4 C 4.8 km/h
204 20-06-2014 23:25:00 15.4 C 9.07 g/m*3 15.4 C 8.1 km/h
205 20-06-2014 23:30:00 15.3 C 9.14 g/m*3 15.3 C 1.6 km/h
206 20-06-2014 23:35:00 15.3 C 9.27 g/m*3 15.3 C 3.2 km/h
207 20-06-2014 23:40:00 15.2 C 9.22 g/m*3 15.2 C 4.8 km/h
208 20-06-2014 23:45:00 15.1 C 9.29 g/m*3 15.1 C 1.6 km/h
209 20-06-2014 23:50:00 15 C 9.23 g/m*3 15 C 1.6 km/h
210 20-06-2014 23:55:00 14.9 C 9.3 g/m*3 14.9 C 4.8 km/h
211 21-06-2014 00:00:00 14.8 C 9.25 g/m*3 14.8 C 3.2 km/h
212 21-06-2014 00:05:00 14.8 C 9.25 g/m*3 14.8 C 3.2 km/h
213 21-06-2014 00:10:00 14.8 C 9.25 g/m*3 14.8 C 0 km/h
214 21-06-2014 00:15:00 14.8 C 9.25 g/m*3 14.8 C 3.2 km/h
215 21-06-2014 00:20:00 14.8 C 9.37 g/m*3 14.8 C 4.8 km/h
216 21-06-2014 00:25:00 14.8 C 9.37 g/m*3 14.8 C 4.8 km/h
217 21-06-2014 00:30:00 14.7 C 9.32 g/m*3 14.7 C 3.2 km/h
218 21-06-2014 00:35:00 14.7 C 9.44 g/m*3 14.7 C 0 km/h
219 21-06-2014 00:40:00 14.6 C 9.39 g/m*3 14.6 C 0 km/h
220 21-06-2014 00:45:00 14.4 C 9.39 g/m*3 14.4 C 0 km/h
221 21-06-2014 00:50:00 14.3 C 9.34 g/m*3 14.3 C 0 km/h
222 21-06-2014 00:55:00 14.3 C 9.34 g/m*3 14.3 C 0 km/h
223 21-06-2014 01:00:00 14.2 C 9.4 g/m*3 14.2 C 0 km/h
224 21-06-2014 01:05:00 14.2 C 9.4 g/m*3 14.2 C 0 km/h
225 21-06-2014 01:10:00 14.1 C 9.47 g/m*3 14.1 C 0 km/h
Sensor: Nr:Datum:Temp:Abs-Feuchte:Windchill:Wind:
Aussen-T/F 226 21-06-2014 01:15:00 14 C 9.29 g/m*3 14 C 0 km/h
227 21-06-2014 01:20:00 14 C 9.41 g/m*3 14 C 0 km/h
228 21-06-2014 01:25:00 13.9 C 9.35 g/m*3 13.9 C 1.6 km/h
229 21-06-2014 01:30:00 14 C 9.41 g/m*3 14 C 0 km/h
230 21-06-2014 01:35:00 14 C 9.29 g/m*3 14 C 8.1 km/h
231 21-06-2014 01:40:00 14.1 C 9.47 g/m*3 14.1 C 0 km/h
232 21-06-2014 01:45:00 14.1 C 9.34 g/m*3 14.1 C 3.2 km/h
233 21-06-2014 01:50:00 14.1 C 9.34 g/m*3 14.1 C 0 km/h
234 21-06-2014 01:55:00 14.1 C 9.34 g/m*3 14.1 C 0 km/h
235 21-06-2014 02:00:00 14.1 C 9.34 g/m*3 14.1 C 4.8 km/h
236 21-06-2014 02:05:00 14.1 C 9.34 g/m*3 14.1 C 1.6 km/h
237 21-06-2014 02:10:00 14.1 C 9.47 g/m*3 14.1 C 1.6 km/h
238 21-06-2014 02:15:00 14 C 9.41 g/m*3 14 C 3.2 km/h
239 21-06-2014 02:20:00 14 C 9.29 g/m*3 14 C 8.1 km/h
240 21-06-2014 02:25:00 14.1 C 9.34 g/m*3 14.1 C 8.1 km/h
241 21-06-2014 02:30:00 14.1 C 9.34 g/m*3 14.1 C 8.1 km/h
242 21-06-2014 02:35:00 14.1 C 9.34 g/m*3 14.1 C 3.2 km/h
243 21-06-2014 02:40:00 14 C 9.29 g/m*3 14 C 0 km/h
244 21-06-2014 02:45:00 13.9 C 9.23 g/m*3 13.9 C 4.8 km/h
245 21-06-2014 02:50:00 13.8 C 9.41 g/m*3 13.8 C 0 km/h
246 21-06-2014 02:55:00 13.8 C 9.41 g/m*3 13.8 C 0 km/h
247 21-06-2014 03:00:00 13.7 C 9.47 g/m*3 13.7 C 0 km/h
248 21-06-2014 03:05:00 13.7 C 9.35 g/m*3 13.7 C 0 km/h
249 21-06-2014 03:10:00 13.7 C 9.35 g/m*3 13.7 C 4.8 km/h
250 21-06-2014 03:15:00 13.7 C 9.24 g/m*3 13.7 C 9.7 km/h
Sensor: Nr:Datum:Temp:Abs-Feuchte:Windchill:Wind:
Aussen-T/F 251 21-06-2014 03:20:00 13.7 C 9.35 g/m*3 13.7 C 0 km/h
252 21-06-2014 03:25:00 13.7 C 9.35 g/m*3 13.7 C 3.2 km/h
253 21-06-2014 03:30:00 13.7 C 9.35 g/m*3 13.7 C 1.6 km/h
254 21-06-2014 03:35:00 13.7 C 9.35 g/m*3 13.7 C 1.6 km/h
255 21-06-2014 03:40:00 13.7 C 9.24 g/m*3 13.7 C 8.1 km/h
256 21-06-2014 03:45:00 13.8 C 9.29 g/m*3 13.8 C 4.8 km/h
257 21-06-2014 03:50:00 13.8 C 9.29 g/m*3 13.8 C 3.2 km/h
258 21-06-2014 03:55:00 13.8 C 9.29 g/m*3 13.8 C 6.4 km/h
259 21-06-2014 04:00:00 13.9 C 9.35 g/m*3 13.9 C 4.8 km/h
260 21-06-2014 04:05:00 13.9 C 9.35 g/m*3 13.9 C 8.1 km/h
261 21-06-2014 04:10:00 13.9 C 9.35 g/m*3 13.9 C 9.7 km/h
262 21-06-2014 04:15:00 13.9 C 9.47 g/m*3 13.9 C 8.1 km/h
263 21-06-2014 04:20:00 13.8 C 9.41 g/m*3 13.8 C 9.7 km/h
264 21-06-2014 04:25:00 13.7 C 9.35 g/m*3 13.7 C 4.8 km/h
265 21-06-2014 04:30:00 13.6 C 9.42 g/m*3 13.6 C 8.1 km/h
266 21-06-2014 04:35:00 13.4 C 9.3 g/m*3 13.4 C 4.8 km/h
267 21-06-2014 04:40:00 13.3 C 9.36 g/m*3 13.3 C 6.4 km/h
268 21-06-2014 04:45:00 13.2 C 9.42 g/m*3 13.2 C 0 km/h
269 21-06-2014 04:50:00 12.9 C 9.35 g/m*3 12.9 C 1.6 km/h
270 21-06-2014 04:55:00 12.8 C 9.3 g/m*3 12.8 C 1.6 km/h
271 21-06-2014 05:00:00 12.7 C 9.35 g/m*3 12.7 C 0 km/h
272 21-06-2014 05:05:00 12.7 C 9.35 g/m*3 12.7 C 4.8 km/h
273 21-06-2014 05:10:00 12.7 C 9.35 g/m*3 12.7 C 3.2 km/h
274 21-06-2014 05:15:00 12.7 C 9.35 g/m*3 12.7 C 0 km/h
275 21-06-2014 05:20:00 12.6 C 9.29 g/m*3 12.6 C 0 km/h
Sensor: Nr:Datum:Temp:Abs-Feuchte:Windchill:Wind:
Aussen-T/F 276 21-06-2014 05:25:00 12.4 C 9.29 g/m*3 12.4 C 1.6 km/h
277 21-06-2014 05:30:00 12.4 C 9.29 g/m*3 12.4 C 0 km/h
278 21-06-2014 05:35:00 12.4 C 9.29 g/m*3 12.4 C 1.6 km/h
279 21-06-2014 05:40:00 12.4 C 9.29 g/m*3 12.4 C 1.6 km/h
280 21-06-2014 05:45:00 12.4 C 9.29 g/m*3 12.4 C 1.6 km/h
281 21-06-2014 05:50:00 12.4 C 9.29 g/m*3 12.4 C 0 km/h
282 21-06-2014 05:55:00 12.4 C 9.29 g/m*3 12.4 C 1.6 km/h
283 21-06-2014 06:00:00 12.4 C 9.29 g/m*3 12.4 C 8.1 km/h
284 21-06-2014 06:05:00 12.4 C 9.29 g/m*3 12.4 C 8.1 km/h
285 21-06-2014 06:10:00 12.6 C 9.4 g/m*3 12.6 C 9.7 km/h
286 21-06-2014 06:15:00 12.6 C 9.4 g/m*3 12.6 C 8.1 km/h
287 21-06-2014 06:20:00 12.7 C 9.35 g/m*3 12.7 C 6.4 km/h
288 21-06-2014 06:25:00 12.7 C 9.35 g/m*3 12.7 C 3.2 km/h
289 21-06-2014 06:30:00 12.8 C 9.41 g/m*3 12.8 C 0 km/h
290 21-06-2014 06:35:00 12.8 C 9.41 g/m*3 12.8 C 0 km/h
291 21-06-2014 06:40:00 12.8 C 9.41 g/m*3 12.8 C 0 km/h
292 21-06-2014 06:45:00 12.9 C 9.47 g/m*3 12.9 C 0 km/h
293 21-06-2014 06:50:00 12.9 C 9.47 g/m*3 12.9 C 0 km/h
294 21-06-2014 06:55:00 13 C 9.53 g/m*3 13 C 0 km/h
295 21-06-2014 07:00:00 13 C 9.41 g/m*3 13 C 3.2 km/h
296 21-06-2014 07:05:00 13 C 9.41 g/m*3 13 C 3.2 km/h
297 21-06-2014 07:10:00 13.1 C 9.47 g/m*3 13.1 C 0 km/h
298 21-06-2014 07:15:00 13.1 C 9.47 g/m*3 13.1 C 0 km/h
299 21-06-2014 07:20:00 13.2 C 9.53 g/m*3 13.2 C 3.2 km/h
300 21-06-2014 07:25:00 13.2 C 9.53 g/m*3 13.2 C 4.8 km/h
Sensor: Nr:Datum:Temp:Abs-Feuchte:Windchill:Wind:
Aussen-T/F 301 21-06-2014 07:30:00 13.2 C 9.53 g/m*3 13.2 C 1.6 km/h
302 21-06-2014 07:35:00 13.3 C 9.47 g/m*3 13.3 C 1.6 km/h
303 21-06-2014 07:40:00 13.3 C 9.47 g/m*3 13.3 C 3.2 km/h
304 21-06-2014 07:45:00 13.3 C 9.47 g/m*3 13.3 C 1.6 km/h
305 21-06-2014 07:50:00 13.4 C 9.53 g/m*3 13.4 C 0 km/h
306 21-06-2014 07:55:00 13.4 C 9.53 g/m*3 13.4 C 3.2 km/h
307 21-06-2014 08:00:00 13.4 C 9.53 g/m*3 13.4 C 3.2 km/h
308 21-06-2014 08:05:00 13.5 C 9.59 g/m*3 13.5 C 1.6 km/h
309 21-06-2014 08:10:00 13.6 C 9.65 g/m*3 13.6 C 3.2 km/h
310 21-06-2014 08:15:00 13.7 C 9.59 g/m*3 13.7 C 8.1 km/h
311 21-06-2014 08:20:00 13.7 C 9.47 g/m*3 13.7 C 6.4 km/h
312 21-06-2014 08:25:00 13.8 C 9.53 g/m*3 13.8 C 8.1 km/h
313 21-06-2014 08:30:00 13.8 C 9.65 g/m*3 13.8 C 4.8 km/h
314 21-06-2014 08:35:00 13.9 C 9.59 g/m*3 13.9 C 8.1 km/h
315 21-06-2014 08:40:00 14.1 C 9.59 g/m*3 14.1 C 4.8 km/h
316 21-06-2014 08:45:00 14.1 C 9.59 g/m*3 14.1 C 6.4 km/h
317 21-06-2014 08:50:00 14.1 C 9.59 g/m*3 14.1 C 4.8 km/h
318 21-06-2014 08:55:00 14.2 C 9.77 g/m*3 14.2 C 4.8 km/h
319 21-06-2014 09:00:00 14.5 C 9.58 g/m*3 14.5 C 6.4 km/h
320 21-06-2014 09:05:00 14.4 C 9.52 g/m*3 14.4 C 6.4 km/h
321 21-06-2014 09:10:00 14.4 C 9.52 g/m*3 14.4 C 8.1 km/h
322 21-06-2014 09:15:00 14.4 C 9.39 g/m*3 14.4 C 9.7 km/h
323 21-06-2014 09:20:00 14.4 C 9.27 g/m*3 14.4 C 4.8 km/h
324 21-06-2014 09:25:00 14.6 C 9.51 g/m*3 14.6 C 4.8 km/h
325 21-06-2014 09:30:00 14.8 C 9.75 g/m*3 14.8 C 4.8 km/h
Sensor: Nr:Datum:Temp:Abs-Feuchte:Windchill:Wind:
Aussen-T/F 326 21-06-2014 09:35:00 14.9 C 9.69 g/m*3 14.9 C 8.1 km/h
327 21-06-2014 09:40:00 15 C 9.36 g/m*3 15 C 11.3 km/h
328 21-06-2014 09:45:00 15 C 9.23 g/m*3 15 C 9.7 km/h
329 21-06-2014 09:50:00 14.9 C 9.18 g/m*3 14.9 C 11.3 km/h
330 21-06-2014 09:55:00 15 C 9.36 g/m*3 15 C 6.4 km/h
331 21-06-2014 10:00:00 15.2 C 9.35 g/m*3 15.2 C 4.8 km/h
332 21-06-2014 10:05:00 15.5 C 9.52 g/m*3 15.5 C 9.7 km/h
333 21-06-2014 10:10:00 15.8 C 9.69 g/m*3 15.8 C 8.1 km/h
334 21-06-2014 10:15:00 16.1 C 9.18 g/m*3 16.1 C 11.3 km/h
335 21-06-2014 10:20:00 16.3 C 9.43 g/m*3 16.3 C 6.4 km/h
336 21-06-2014 10:25:00 16.3 C 9.43 g/m*3 16.3 C 9.7 km/h
337 21-06-2014 10:30:00 16.1 C 9.46 g/m*3 16.1 C 6.4 km/h
338 21-06-2014 10:35:00 15.9 C 9.34 g/m*3 15.9 C 6.4 km/h
339 21-06-2014 10:40:00 15.8 C 9.42 g/m*3 15.8 C 6.4 km/h
340 21-06-2014 10:45:00 15.8 C 9.42 g/m*3 15.8 C 4.8 km/h
341 21-06-2014 10:50:00 15.8 C 9.29 g/m*3 15.8 C 6.4 km/h
342 21-06-2014 10:55:00 15.8 C 9.15 g/m*3 15.8 C 6.4 km/h
343 21-06-2014 11:00:00 16.2 C 9.65 g/m*3 16.2 C 6.4 km/h
344 21-06-2014 11:05:00 16.8 C 9.58 g/m*3 16.8 C 9.7 km/h
345 21-06-2014 11:10:00 17.2 C 9.52 g/m*3 17.2 C 12.9 km/h
346 21-06-2014 11:15:00 17.4 C 9.04 g/m*3 17.4 C 12.9 km/h
347 21-06-2014 11:20:00 17.4 C 8.89 g/m*3 17.4 C 8.1 km/h
348 21-06-2014 11:25:00 17.3 C 8.69 g/m*3 17.3 C 9.7 km/h
349 21-06-2014 11:30:00 17.2 C 8.93 g/m*3 17.2 C 11.3 km/h
350 21-06-2014 11:35:00 17.1 C 9.03 g/m*3 17.1 C 8.1 km/h
Sensor: Nr:Datum:Temp:Abs-Feuchte:Windchill:Wind:
Aussen-T/F 351 21-06-2014 11:40:00 17 C 8.83 g/m*3 17 C 6.4 km/h
352 21-06-2014 11:45:00 16.8 C 8.86 g/m*3 16.8 C 9.7 km/h
353 21-06-2014 11:50:00 17 C 8.97 g/m*3 17 C 9.7 km/h
354 21-06-2014 11:55:00 17.1 C 8.88 g/m*3 17.1 C 11.3 km/h
355 21-06-2014 12:00:00 17.1 C 9.03 g/m*3 17.1 C 9.7 km/h
356 21-06-2014 12:05:00 17.1 C 8.73 g/m*3 17.1 C 11.3 km/h
357 21-06-2014 12:10:00 17.1 C 9.03 g/m*3 17.1 C 8.1 km/h
358 21-06-2014 12:15:00 17.3 C 8.99 g/m*3 17.3 C 8.1 km/h
359 21-06-2014 12:20:00 17.6 C 8.85 g/m*3 17.6 C 9.7 km/h
360 21-06-2014 12:25:00 17.8 C 8.65 g/m*3 17.8 C 9.7 km/h
361 21-06-2014 12:30:00 17.9 C 8.4 g/m*3 17.9 C 9.7 km/h
362 21-06-2014 12:35:00 17.9 C 8.7 g/m*3 17.9 C 11.3 km/h
363 21-06-2014 12:40:00 18.2 C 8.7 g/m*3 18.2 C 12.9 km/h
364 21-06-2014 12:45:00 18.4 C 8.49 g/m*3 18.4 C 9.7 km/h
365 21-06-2014 12:50:00 18.4 C 8.34 g/m*3 18.4 C 8.1 km/h
366 21-06-2014 12:55:00 18.3 C 8.6 g/m*3 18.3 C 12.9 km/h
367 21-06-2014 13:00:00 18.6 C 8.59 g/m*3 18.6 C 8.1 km/h
368 21-06-2014 13:05:00 19.1 C 9.18 g/m*3 19.1 C 4.8 km/h
369 21-06-2014 13:10:00 19.5 C 8.56 g/m*3 19.5 C 11.3 km/h
370 21-06-2014 13:15:00 19.4 C 9.01 g/m*3 19.4 C 11.3 km/h
371 21-06-2014 13:20:00 19.6 C 9.28 g/m*3 19.6 C 9.7 km/h
372 21-06-2014 13:25:00 19.7 C 8.83 g/m*3 19.7 C 11.3 km/h
373 21-06-2014 13:30:00 19 C 8.47 g/m*3 19 C 11.3 km/h
374 21-06-2014 13:35:00 18.7 C 8.49 g/m*3 18.7 C 11.3 km/h
375 21-06-2014 13:40:00 18.8 C 8.54 g/m*3 18.8 C 11.3 km/h
Sensor: Nr:Datum:Temp:Abs-Feuchte:Windchill:Wind:
Aussen-T/F 376 21-06-2014 13:45:00 19.2 C 8.74 g/m*3 19.2 C 11.3 km/h
377 21-06-2014 13:50:00 19.7 C 8.66 g/m*3 19.7 C 8.1 km/h
378 21-06-2014 13:55:00 19.7 C 8.66 g/m*3 19.7 C 11.3 km/h
379 21-06-2014 14:00:00 19.2 C 8.41 g/m*3 19.2 C 14.5 km/h
380 21-06-2014 14:05:00 19.3 C 8.46 g/m*3 19.3 C 9.7 km/h
381 21-06-2014 14:10:00 19.3 C 8.13 g/m*3 19.3 C 11.3 km/h
382 21-06-2014 14:15:00 19.7 C 8.49 g/m*3 19.7 C 12.9 km/h
383 21-06-2014 14:20:00 19.7 C 8.83 g/m*3 19.7 C 9.7 km/h
384 21-06-2014 14:25:00 20.1 C 8.52 g/m*3 20.1 C 9.7 km/h
385 21-06-2014 14:30:00 20.4 C 9.02 g/m*3 20.4 C 11.3 km/h
386 21-06-2014 14:35:00 20.7 C 8.82 g/m*3 20.7 C 14.5 km/h
387 21-06-2014 14:40:00 20.7 C 8.46 g/m*3 20.7 C 9.7 km/h
388 21-06-2014 14:45:00 20.6 C 8.59 g/m*3 20.6 C 11.3 km/h
389 21-06-2014 14:50:00 20.3 C 8.27 g/m*3 20.3 C 6.4 km/h
390 21-06-2014 14:55:00 20.3 C 8.62 g/m*3 20.3 C 8.1 km/h
391 21-06-2014 15:00:00 20.7 C 8.82 g/m*3 20.7 C 11.3 km/h
392 21-06-2014 15:05:00 20.8 C 8.51 g/m*3 20.8 C 9.7 km/h
393 21-06-2014 15:10:00 20.6 C 8.41 g/m*3 20.6 C 14.5 km/h
394 21-06-2014 15:15:00 20.5 C 8.72 g/m*3 20.5 C 9.7 km/h
395 21-06-2014 15:20:00 20.6 C 8.95 g/m*3 20.6 C 6.4 km/h
396 21-06-2014 15:25:00 20.6 C 8.95 g/m*3 20.6 C 9.7 km/h
397 21-06-2014 15:30:00 20.8 C 9.05 g/m*3 20.8 C 11.3 km/h
398 21-06-2014 15:35:00 20.9 C 8.56 g/m*3 20.9 C 14.5 km/h
399 21-06-2014 15:40:00 21.1 C 8.66 g/m*3 21.1 C 8.1 km/h
400 21-06-2014 15:45:00 20.9 C 8.38 g/m*3 20.9 C 8.1 km/h
Sensor: Nr:Datum:Temp:Abs-Feuchte:Windchill:Wind:
Aussen-T/F 401 21-06-2014 15:50:00 20.8 C 8.69 g/m*3 20.8 C 8.1 km/h
402 21-06-2014 15:55:00 21.3 C 8.57 g/m*3 21.3 C 9.7 km/h
403 21-06-2014 16:00:00 21.6 C 9.1 g/m*3 21.6 C 8.1 km/h
404 21-06-2014 16:05:00 21.7 C 8.39 g/m*3 21.7 C 9.7 km/h
405 21-06-2014 16:10:00 21.7 C 8.77 g/m*3 21.7 C 6.4 km/h
406 21-06-2014 16:15:00 21.7 C 8.58 g/m*3 21.7 C 9.7 km/h
407 21-06-2014 16:20:00 21.3 C 8.76 g/m*3 21.3 C 8.1 km/h
408 21-06-2014 16:25:00 21.4 C 8.44 g/m*3 21.4 C 12.9 km/h
409 21-06-2014 16:30:00 21.6 C 8.91 g/m*3 21.6 C 12.9 km/h
410 21-06-2014 16:35:00 21.3 C 8.57 g/m*3 21.3 C 11.3 km/h
411 21-06-2014 16:40:00 21.1 C 8.84 g/m*3 21.1 C 11.3 km/h
412 21-06-2014 16:45:00 21.3 C 8.76 g/m*3 21.3 C 8.1 km/h
413 21-06-2014 16:50:00 21.3 C 8.57 g/m*3 21.3 C 11.3 km/h
414 21-06-2014 16:55:00 21.2 C 9.08 g/m*3 21.2 C 8.1 km/h
415 21-06-2014 17:00:00 21.4 C 8.62 g/m*3 21.4 C 8.1 km/h
416 21-06-2014 17:05:00 21.6 C 9.1 g/m*3 21.6 C 8.1 km/h
417 21-06-2014 17:10:00 21.9 C 8.68 g/m*3 21.9 C 11.3 km/h
418 21-06-2014 17:15:00 21.8 C 8.44 g/m*3 21.8 C 8.1 km/h
419 21-06-2014 17:20:00 21.4 C 8.25 g/m*3 21.4 C 8.1 km/h
420 21-06-2014 17:25:00 20.8 C 8.15 g/m*3 20.8 C 8.1 km/h
421 21-06-2014 17:30:00 20.4 C 8.31 g/m*3 20.4 C 8.1 km/h
422 21-06-2014 17:35:00 20.8 C 8.51 g/m*3 20.8 C 8.1 km/h
423 21-06-2014 17:40:00 21.3 C 8.39 g/m*3 21.3 C 4.8 km/h
424 21-06-2014 17:45:00 21.4 C 8.44 g/m*3 21.4 C 4.8 km/h
425 21-06-2014 17:50:00 21.7 C 8.58 g/m*3 21.7 C 6.4 km/h
Sensor: Nr:Datum:Temp:Abs-Feuchte:Windchill:Wind:
Aussen-T/F 426 21-06-2014 17:55:00 21.9 C 8.3 g/m*3 21.9 C 6.4 km/h
427 21-06-2014 18:00:00 22.1 C 8.39 g/m*3 22.1 C 8.1 km/h
428 21-06-2014 18:05:00 22.1 C 8.59 g/m*3 22.1 C 6.4 km/h
429 21-06-2014 18:10:00 22.2 C 8.64 g/m*3 22.2 C 9.7 km/h
430 21-06-2014 18:15:00 22.3 C 8.29 g/m*3 22.3 C 9.7 km/h
431 21-06-2014 18:20:00 22.2 C 8.25 g/m*3 22.2 C 6.4 km/h
432 21-06-2014 18:25:00 21.6 C 8.16 g/m*3 21.6 C 8.1 km/h
433 21-06-2014 18:30:00 21.2 C 8.15 g/m*3 21.2 C 8.1 km/h
434 21-06-2014 18:35:00 20.8 C 8.15 g/m*3 20.8 C 8.1 km/h
435 21-06-2014 18:40:00 20.4 C 8.14 g/m*3 20.4 C 4.8 km/h
436 21-06-2014 18:45:00 20.3 C 8.44 g/m*3 20.3 C 3.2 km/h
437 21-06-2014 18:50:00 20.5 C 8.36 g/m*3 20.5 C 4.8 km/h
438 21-06-2014 18:55:00 21 C 8.43 g/m*3 21 C 6.4 km/h
439 21-06-2014 19:00:00 21.4 C 8.44 g/m*3 21.4 C 3.2 km/h
440 21-06-2014 19:05:00 21.8 C 8.44 g/m*3 21.8 C 9.7 km/h
441 21-06-2014 19:10:00 22.1 C 8.2 g/m*3 22.1 C 9.7 km/h
442 21-06-2014 19:15:00 22 C 8.15 g/m*3 22 C 8.1 km/h
443 21-06-2014 19:20:00 21.8 C 8.06 g/m*3 21.8 C 6.4 km/h
444 21-06-2014 19:25:00 21.6 C 8.35 g/m*3 21.6 C 9.7 km/h
445 21-06-2014 19:30:00 21.3 C 8.02 g/m*3 21.3 C 9.7 km/h
446 21-06-2014 19:35:00 21 C 8.43 g/m*3 21 C 8.1 km/h
447 21-06-2014 19:40:00 20.8 C 8.15 g/m*3 20.8 C 4.8 km/h
448 21-06-2014 19:45:00 20.6 C 8.23 g/m*3 20.6 C 6.4 km/h
449 21-06-2014 19:50:00 20.4 C 8.49 g/m*3 20.4 C 4.8 km/h
450 21-06-2014 19:55:00 20.4 C 8.31 g/m*3 20.4 C 3.2 km/h
Sensor: Nr:Datum:Temp:Abs-Feuchte:Windchill:Wind:
Aussen-T/F 451 21-06-2014 20:00:00 20.3 C 8.09 g/m*3 20.3 C 3.2 km/h
452 21-06-2014 20:05:00 20.3 C 8.44 g/m*3 20.3 C 4.8 km/h
453 21-06-2014 20:10:00 20.3 C 8.44 g/m*3 20.3 C 3.2 km/h
454 21-06-2014 20:15:00 20.3 C 8.62 g/m*3 20.3 C 3.2 km/h
455 21-06-2014 20:20:00 20.3 C 8.62 g/m*3 20.3 C 4.8 km/h
456 21-06-2014 20:25:00 20.2 C 8.57 g/m*3 20.2 C 4.8 km/h
457 21-06-2014 20:30:00 20.1 C 8.52 g/m*3 20.1 C 4.8 km/h
458 21-06-2014 20:35:00 19.9 C 8.59 g/m*3 19.9 C 6.4 km/h
459 21-06-2014 20:40:00 19.8 C 8.54 g/m*3 19.8 C 4.8 km/h
460 21-06-2014 20:45:00 19.8 C 8.37 g/m*3 19.8 C 4.8 km/h
461 21-06-2014 20:50:00 19.7 C 8.32 g/m*3 19.7 C 1.6 km/h
462 21-06-2014 20:55:00 19.6 C 8.61 g/m*3 19.6 C 3.2 km/h
463 21-06-2014 21:00:00 19.5 C 9.06 g/m*3 19.5 C 0 km/h
464 21-06-2014 21:05:00 19.2 C 9.07 g/m*3 19.2 C 0 km/h
465 21-06-2014 21:10:00 18.6 C 9.23 g/m*3 18.6 C 0 km/h
466 21-06-2014 21:15:00 18 C 9.52 g/m*3 18 C 1.6 km/h
467 21-06-2014 21:20:00 17.4 C 9.48 g/m*3 17.4 C 0 km/h
468 21-06-2014 21:25:00 17.1 C 9.46 g/m*3 17.1 C 0 km/h
469 21-06-2014 21:30:00 16.7 C 9.52 g/m*3 16.7 C 1.6 km/h
470 21-06-2014 21:35:00 16.3 C 9.3 g/m*3 16.3 C 1.6 km/h
471 21-06-2014 21:40:00 16.1 C 9.32 g/m*3 16.1 C 1.6 km/h
472 21-06-2014 21:45:00 15.9 C 9.07 g/m*3 15.9 C 1.6 km/h
473 21-06-2014 21:50:00 15.8 C 9.02 g/m*3 15.8 C 1.6 km/h
474 21-06-2014 21:55:00 15.6 C 8.91 g/m*3 15.6 C 1.6 km/h
475 21-06-2014 22:00:00 15.5 C 8.99 g/m*3 15.5 C 1.6 km/h
Sensor: Nr:Datum:Temp:Abs-Feuchte:Windchill:Wind:
Aussen-T/F 476 21-06-2014 22:05:00 15.4 C 9.07 g/m*3 15.4 C 0 km/h
477 21-06-2014 22:10:00 15.3 C 9.01 g/m*3 15.3 C 0 km/h
478 21-06-2014 22:15:00 15.2 C 8.96 g/m*3 15.2 C 1.6 km/h
479 21-06-2014 22:20:00 15.1 C 9.03 g/m*3 15.1 C 0 km/h
480 21-06-2014 22:25:00 15.1 C 9.03 g/m*3 15.1 C 1.6 km/h
481 21-06-2014 22:30:00 15 C 8.85 g/m*3 15 C 0 km/h
482 21-06-2014 22:35:00 14.9 C 8.92 g/m*3 14.9 C 0 km/h
483 21-06-2014 22:40:00 14.8 C 8.99 g/m*3 14.8 C 0 km/h
484 21-06-2014 22:45:00 14.7 C 9.07 g/m*3 14.7 C 0 km/h
485 21-06-2014 22:50:00 14.6 C 8.88 g/m*3 14.6 C 0 km/h
486 21-06-2014 22:55:00 14.5 C 8.95 g/m*3 14.5 C 0 km/h
487 21-06-2014 23:00:00 14.4 C 8.9 g/m*3 14.4 C 0 km/h
488 21-06-2014 23:05:00 14.4 C 9.15 g/m*3 14.4 C 0 km/h
489 21-06-2014 23:10:00 13.9 C 8.87 g/m*3 13.9 C 0 km/h
490 21-06-2014 23:15:00 13.8 C 8.94 g/m*3 13.8 C 0 km/h
491 21-06-2014 23:20:00 13.7 C 8.88 g/m*3 13.7 C 0 km/h
492 21-06-2014 23:25:00 13.6 C 8.94 g/m*3 13.6 C 0 km/h
493 21-06-2014 23:30:00 13.4 C 8.83 g/m*3 13.4 C 0 km/h
494 21-06-2014 23:35:00 13.2 C 8.84 g/m*3 13.2 C 0 km/h
495 21-06-2014 23:40:00 13.2 C 8.96 g/m*3 13.2 C 0 km/h
496 21-06-2014 23:45:00 13.1 C 8.9 g/m*3 13.1 C 0 km/h
497 21-06-2014 23:50:00 12.9 C 8.9 g/m*3 12.9 C 0 km/h
498 21-06-2014 23:55:00 12.8 C 8.85 g/m*3 12.8 C 0 km/h
499 22-06-2014 00:00:00 12.7 C 8.79 g/m*3 12.7 C 0 km/h
500 22-06-2014 00:05:00 12.7 C 8.91 g/m*3 12.7 C 0 km/h
Sensor: Nr:Datum:Temp:Abs-Feuchte:Windchill:Wind:
Aussen-T/F 501 22-06-2014 00:10:00 12.6 C 8.85 g/m*3 12.6 C 0 km/h
502 22-06-2014 00:15:00 12.6 C 8.85 g/m*3 12.6 C 0 km/h
503 22-06-2014 00:20:00 12.5 C 8.8 g/m*3 12.5 C 0 km/h
504 22-06-2014 00:25:00 12.4 C 8.85 g/m*3 12.4 C 0 km/h
505 22-06-2014 00:30:00 12.4 C 8.85 g/m*3 12.4 C 0 km/h
506 22-06-2014 00:35:00 12.3 C 8.8 g/m*3 12.3 C 0 km/h
507 22-06-2014 00:40:00 12.3 C 8.8 g/m*3 12.3 C 1.6 km/h
508 22-06-2014 00:45:00 12.2 C 8.74 g/m*3 12.2 C 1.6 km/h
509 22-06-2014 00:50:00 12.1 C 8.79 g/m*3 12.1 C 0 km/h
510 22-06-2014 00:55:00 12.1 C 8.79 g/m*3 12.1 C 1.6 km/h
511 22-06-2014 01:00:00 12 C 8.74 g/m*3 12 C 0 km/h
512 22-06-2014 01:05:00 11.9 C 8.79 g/m*3 11.9 C 1.6 km/h
513 22-06-2014 01:10:00 11.8 C 8.63 g/m*3 11.8 C 0 km/h
514 22-06-2014 01:15:00 11.8 C 8.74 g/m*3 11.8 C 0 km/h
515 22-06-2014 01:20:00 11.7 C 8.68 g/m*3 11.7 C 0 km/h
516 22-06-2014 01:25:00 11.7 C 8.79 g/m*3 11.7 C 0 km/h
517 22-06-2014 01:30:00 11.6 C 8.63 g/m*3 11.6 C 0 km/h
518 22-06-2014 01:35:00 11.5 C 8.68 g/m*3 11.5 C 1.6 km/h
519 22-06-2014 01:40:00 11.4 C 8.62 g/m*3 11.4 C 0 km/h
520 22-06-2014 01:45:00 11.3 C 8.57 g/m*3 11.3 C 0 km/h
521 22-06-2014 01:50:00 11.2 C 8.62 g/m*3 11.2 C 3.2 km/h
522 22-06-2014 01:55:00 11.2 C 8.62 g/m*3 11.2 C 4.8 km/h
523 22-06-2014 02:00:00 11.1 C 8.56 g/m*3 11.1 C 3.2 km/h
524 22-06-2014 02:05:00 11.1 C 8.56 g/m*3 11.1 C 0 km/h
525 22-06-2014 02:10:00 10.9 C 8.55 g/m*3 10.9 C 0 km/h
Sensor: Nr:Datum:Temp:Abs-Feuchte:Windchill:Wind:
Aussen-T/F 526 22-06-2014 02:15:00 10.9 C 8.55 g/m*3 10.9 C 0 km/h
527 22-06-2014 02:20:00 10.8 C 8.5 g/m*3 10.8 C 0 km/h
528 22-06-2014 02:25:00 10.8 C 8.5 g/m*3 10.8 C 0 km/h
529 22-06-2014 02:30:00 10.8 C 8.6 g/m*3 10.8 C 0 km/h
530 22-06-2014 02:35:00 10.7 C 8.55 g/m*3 10.7 C 0 km/h
531 22-06-2014 02:40:00 10.6 C 8.49 g/m*3 10.6 C 0 km/h
532 22-06-2014 02:45:00 10.6 C 8.49 g/m*3 10.6 C 0 km/h
533 22-06-2014 02:50:00 10.5 C 8.44 g/m*3 10.5 C 0 km/h
534 22-06-2014 02:55:00 10.4 C 8.38 g/m*3 10.4 C 0 km/h
535 22-06-2014 03:00:00 10.4 C 8.38 g/m*3 10.4 C 0 km/h
536 22-06-2014 03:05:00 10.3 C 8.43 g/m*3 10.3 C 0 km/h
537 22-06-2014 03:10:00 10.2 C 8.37 g/m*3 10.2 C 0 km/h
538 22-06-2014 03:15:00 10.2 C 8.37 g/m*3 10.2 C 0 km/h
539 22-06-2014 03:20:00 10.2 C 8.37 g/m*3 10.2 C 0 km/h
540 22-06-2014 03:25:00 10.1 C 8.42 g/m*3 10.1 C 0 km/h
541 22-06-2014 03:30:00 10.1 C 8.42 g/m*3 10.1 C 0 km/h
542 22-06-2014 03:35:00 10 C 8.36 g/m*3 10 C 0 km/h
543 22-06-2014 03:40:00 9.9 C 8.31 g/m*3 9.9 C 0 km/h
544 22-06-2014 03:45:00 9.9 C 8.31 g/m*3 9.9 C 0 km/h
545 22-06-2014 03:50:00 9.9 C 8.31 g/m*3 9.9 C 0 km/h
546 22-06-2014 03:55:00 9.8 C 8.26 g/m*3 9.8 C 0 km/h
547 22-06-2014 04:00:00 9.8 C 8.35 g/m*3 9.8 C 0 km/h
548 22-06-2014 04:05:00 9.8 C 8.35 g/m*3 9.8 C 0 km/h
549 22-06-2014 04:10:00 9.7 C 8.3 g/m*3 9.7 C 0 km/h
550 22-06-2014 04:15:00 9.7 C 8.3 g/m*3 9.7 C 0 km/h
Sensor: Nr:Datum:Temp:Abs-Feuchte:Windchill:Wind:
Aussen-T/F 551 22-06-2014 04:20:00 9.7 C 8.3 g/m*3 9.7 C 0 km/h
552 22-06-2014 04:25:00 9.6 C 8.24 g/m*3 9.6 C 0 km/h
553 22-06-2014 04:30:00 9.6 C 8.24 g/m*3 9.6 C 0 km/h
554 22-06-2014 04:35:00 9.4 C 8.14 g/m*3 9.4 C 0 km/h
555 22-06-2014 04:40:00 9.4 C 8.23 g/m*3 9.4 C 0 km/h
556 22-06-2014 04:45:00 9.5 C 8.28 g/m*3 9.5 C 1.6 km/h
557 22-06-2014 04:50:00 9.6 C 8.34 g/m*3 9.6 C 3.2 km/h
558 22-06-2014 04:55:00 9.6 C 8.34 g/m*3 9.6 C 1.6 km/h
559 22-06-2014 05:00:00 9.7 C 8.39 g/m*3 9.7 C 0 km/h
560 22-06-2014 05:05:00 9.7 C 8.39 g/m*3 9.7 C 1.6 km/h
561 22-06-2014 05:10:00 9.7 C 8.39 g/m*3 9.7 C 0 km/h
562 22-06-2014 05:15:00 9.8 C 8.44 g/m*3 9.8 C 1.6 km/h
563 22-06-2014 05:20:00 9.9 C 8.5 g/m*3 9.9 C 3.2 km/h
564 22-06-2014 05:25:00 10 C 8.46 g/m*3 10 C 0 km/h
565 22-06-2014 05:30:00 10.1 C 8.51 g/m*3 10.1 C 0 km/h
566 22-06-2014 05:35:00 10.1 C 8.51 g/m*3 10.1 C 0 km/h
567 22-06-2014 05:40:00 10 C 8.36 g/m*3 10 C 0 km/h
568 22-06-2014 05:45:00 10 C 8.36 g/m*3 10 C 0 km/h
569 22-06-2014 05:50:00 10 C 8.36 g/m*3 10 C 0 km/h
570 22-06-2014 05:55:00 10 C 8.46 g/m*3 10 C 0 km/h
571 22-06-2014 06:00:00 10 C 8.46 g/m*3 10 C 3.2 km/h
572 22-06-2014 06:05:00 10 C 8.36 g/m*3 9.37 C 6.4 km/h
573 22-06-2014 06:10:00 10.1 C 8.42 g/m*3 10.1 C 1.6 km/h
574 22-06-2014 06:15:00 10.1 C 8.42 g/m*3 10.1 C 1.6 km/h
575 22-06-2014 06:20:00 10.1 C 8.42 g/m*3 10.1 C 0 km/h
Sensor: Nr:Datum:Temp:Abs-Feuchte:Windchill:Wind:
Aussen-T/F 576 22-06-2014 06:25:00 10.1 C 8.51 g/m*3 10.1 C 3.2 km/h
577 22-06-2014 06:30:00 10.1 C 8.51 g/m*3 10.1 C 0 km/h
578 22-06-2014 06:35:00 10.1 C 8.51 g/m*3 10.1 C 1.6 km/h
579 22-06-2014 06:40:00 10.2 C 8.56 g/m*3 10.2 C 4.8 km/h
580 22-06-2014 06:45:00 10.2 C 8.56 g/m*3 10.2 C 1.6 km/h
581 22-06-2014 06:50:00 10.3 C 8.52 g/m*3 10.3 C 3.2 km/h
582 22-06-2014 06:55:00 10.4 C 8.58 g/m*3 10.4 C 3.2 km/h
583 22-06-2014 07:00:00 10.4 C 8.58 g/m*3 10.4 C 3.2 km/h
584 22-06-2014 07:05:00 10.5 C 8.53 g/m*3 9.95 C 6.4 km/h
585 22-06-2014 07:10:00 10.6 C 8.59 g/m*3 10.6 C 4.8 km/h
586 22-06-2014 07:15:00 10.6 C 8.49 g/m*3 10.6 C 3.2 km/h
587 22-06-2014 07:20:00 10.7 C 8.55 g/m*3 10.7 C 4.8 km/h
588 22-06-2014 07:25:00 10.8 C 8.6 g/m*3 10.29 C 6.4 km/h
589 22-06-2014 07:30:00 11 C 8.71 g/m*3 11 C 0 km/h
590 22-06-2014 07:35:00 11.1 C 8.76 g/m*3 11.1 C 0 km/h
591 22-06-2014 07:40:00 11.3 C 8.77 g/m*3 11.3 C 1.6 km/h
592 22-06-2014 07:45:00 11.6 C 8.83 g/m*3 11.6 C 4.8 km/h
593 22-06-2014 07:50:00 11.7 C 8.79 g/m*3 11.7 C 3.2 km/h
594 22-06-2014 07:55:00 11.9 C 8.9 g/m*3 11.9 C 6.4 km/h
595 22-06-2014 08:00:00 12 C 8.95 g/m*3 12 C 4.8 km/h
596 22-06-2014 08:05:00 12.2 C 9.06 g/m*3 12.2 C 3.2 km/h
597 22-06-2014 08:10:00 12.3 C 9.01 g/m*3 12.3 C 6.4 km/h
598 22-06-2014 08:15:00 12.4 C 9.07 g/m*3 12.4 C 3.2 km/h
599 22-06-2014 08:20:00 12.6 C 9.18 g/m*3 12.6 C 3.2 km/h
600 22-06-2014 08:25:00 12.7 C 9.24 g/m*3 12.7 C 0 km/h
Sensor: Nr:Datum:Temp:Abs-Feuchte:Windchill:Wind:
Aussen-T/F 601 22-06-2014 08:30:00 12.8 C 9.3 g/m*3 12.8 C 3.2 km/h
602 22-06-2014 08:35:00 12.9 C 9.35 g/m*3 12.9 C 1.6 km/h
603 22-06-2014 08:40:00 13.2 C 9.53 g/m*3 13.2 C 1.6 km/h
604 22-06-2014 08:45:00 13.6 C 9.77 g/m*3 13.6 C 0 km/h
605 22-06-2014 08:50:00 14 C 9.89 g/m*3 14 C 0 km/h
606 22-06-2014 08:55:00 14.4 C 10.14 g/m*3 14.4 C 0 km/h
607 22-06-2014 09:00:00 14.9 C 10.2 g/m*3 14.9 C 0 km/h
608 22-06-2014 09:05:00 15.3 C 10.32 g/m*3 15.3 C 1.6 km/h
609 22-06-2014 09:10:00 15.8 C 10.77 g/m*3 15.8 C 1.6 km/h
610 22-06-2014 09:15:00 16.3 C 10.68 g/m*3 16.3 C 3.2 km/h
611 22-06-2014 09:20:00 16.6 C 10.74 g/m*3 16.6 C 4.8 km/h
612 22-06-2014 09:25:00 16.6 C 10.74 g/m*3 16.6 C 4.8 km/h
613 22-06-2014 09:30:00 16.7 C 10.94 g/m*3 16.7 C 11.3 km/h
614 22-06-2014 09:35:00 16.8 C 10.87 g/m*3 16.8 C 6.4 km/h
615 22-06-2014 09:40:00 17 C 10.85 g/m*3 17 C 12.9 km/h
616 22-06-2014 09:45:00 17.1 C 11.21 g/m*3 17.1 C 4.8 km/h
617 22-06-2014 09:50:00 17.2 C 11.13 g/m*3 17.2 C 4.8 km/h
618 22-06-2014 09:55:00 17.4 C 11.12 g/m*3 17.4 C 6.4 km/h
619 22-06-2014 10:00:00 17.7 C 11.32 g/m*3 17.7 C 4.8 km/h
620 22-06-2014 10:05:00 17.7 C 11.01 g/m*3 17.7 C 11.3 km/h
621 22-06-2014 10:10:00 17.8 C 11.08 g/m*3 17.8 C 9.7 km/h
622 22-06-2014 10:15:00 17.9 C 10.84 g/m*3 17.9 C 8.1 km/h
623 22-06-2014 10:20:00 17.9 C 10.99 g/m*3 17.9 C 9.7 km/h
624 22-06-2014 10:25:00 17.9 C 10.99 g/m*3 17.9 C 9.7 km/h
625 22-06-2014 10:30:00 17.8 C 10.78 g/m*3 17.8 C 4.8 km/h
Sensor: Nr:Datum:Temp:Abs-Feuchte:Windchill:Wind:
Aussen-T/F 626 22-06-2014 10:35:00 17.8 C 11.23 g/m*3 17.8 C 3.2 km/h
627 22-06-2014 10:40:00 18.3 C 11.1 g/m*3 18.3 C 6.4 km/h
628 22-06-2014 10:45:00 18.6 C 10.98 g/m*3 18.6 C 8.1 km/h
629 22-06-2014 10:50:00 18.8 C 10.63 g/m*3 18.8 C 6.4 km/h
630 22-06-2014 10:55:00 19.1 C 10.66 g/m*3 19.1 C 4.8 km/h
631 22-06-2014 11:00:00 19.4 C 10.18 g/m*3 19.4 C 12.9 km/h
632 22-06-2014 11:05:00 19.8 C 10.25 g/m*3 19.8 C 8.1 km/h
633 22-06-2014 11:10:00 19.7 C 10.19 g/m*3 19.7 C 12.9 km/h
634 22-06-2014 11:15:00 19.6 C 10.47 g/m*3 19.6 C 8.1 km/h
635 22-06-2014 11:20:00 19.6 C 9.79 g/m*3 19.6 C 9.7 km/h
636 22-06-2014 11:25:00 19.9 C 10.48 g/m*3 19.9 C 6.4 km/h
637 22-06-2014 11:30:00 19.9 C 10.14 g/m*3 19.9 C 9.7 km/h
638 22-06-2014 11:35:00 19.8 C 10.59 g/m*3 19.8 C 11.3 km/h
639 22-06-2014 11:40:00 19.5 C 10.57 g/m*3 19.5 C 11.3 km/h
640 22-06-2014 11:45:00 19.2 C 10.39 g/m*3 19.2 C 11.3 km/h
641 22-06-2014 11:50:00 19.1 C 10.33 g/m*3 19.1 C 11.3 km/h
642 22-06-2014 11:55:00 19.3 C 10.12 g/m*3 19.3 C 11.3 km/h
643 22-06-2014 12:00:00 19.8 C 10.42 g/m*3 19.8 C 12.9 km/h
644 22-06-2014 12:05:00 20.3 C 10.38 g/m*3 20.3 C 11.3 km/h
645 22-06-2014 12:10:00 20.6 C 10.38 g/m*3 20.6 C 14.5 km/h
646 22-06-2014 12:15:00 20.4 C 10.08 g/m*3 20.4 C 14.5 km/h
647 22-06-2014 12:20:00 20.2 C 10.14 g/m*3 20.2 C 12.9 km/h
648 22-06-2014 12:25:00 20.3 C 9.85 g/m*3 20.3 C 8.1 km/h
649 22-06-2014 12:30:00 20.4 C 10.26 g/m*3 20.4 C 4.8 km/h
650 22-06-2014 12:35:00 20.7 C 9.72 g/m*3 20.7 C 8.1 km/h
Sensor: Nr:Datum:Temp:Abs-Feuchte:Windchill:Wind:
Aussen-T/F 651 22-06-2014 12:40:00 20.9 C 9.11 g/m*3 20.9 C 19.3 km/h
652 22-06-2014 12:45:00 21.2 C 9.45 g/m*3 21.2 C 19.3 km/h
653 22-06-2014 12:50:00 21.5 C 9.43 g/m*3 21.5 C 8.1 km/h
654 22-06-2014 12:55:00 21.6 C 9.67 g/m*3 21.6 C 8.1 km/h
655 22-06-2014 13:00:00 21.8 C 9.98 g/m*3 21.8 C 9.7 km/h
656 22-06-2014 13:05:00 21.9 C 9.26 g/m*3 21.9 C 8.1 km/h
657 22-06-2014 13:10:00 22.1 C 9.76 g/m*3 22.1 C 9.7 km/h
658 22-06-2014 13:15:00 22 C 8.93 g/m*3 22 C 12.9 km/h
659 22-06-2014 13:20:00 21.6 C 9.29 g/m*3 21.6 C 12.9 km/h
660 22-06-2014 13:25:00 21.5 C 8.67 g/m*3 21.5 C 12.9 km/h
661 22-06-2014 13:30:00 21.4 C 8.81 g/m*3 21.4 C 14.5 km/h
662 22-06-2014 13:35:00 21.4 C 8.81 g/m*3 21.4 C 12.9 km/h
663 22-06-2014 14:00:00 21.4 C 8.62 g/m*3 21.4 C 9.7 km/h
664 22-06-2014 14:05:00 22 C 8.35 g/m*3 22 C 12.9 km/h
665 22-06-2014 14:10:00 22.6 C 9.24 g/m*3 22.6 C 9.7 km/h
666 22-06-2014 14:15:00 23.2 C 8.94 g/m*3 23.2 C 16.1 km/h
667 22-06-2014 14:20:00 23.2 C 8.11 g/m*3 23.2 C 9.7 km/h
668 22-06-2014 14:25:00 22.6 C 8.04 g/m*3 22.6 C 6.4 km/h
669 22-06-2014 14:30:00 22.7 C 8.28 g/m*3 22.7 C 11.3 km/h
670 22-06-2014 14:35:00 22.9 C 8.17 g/m*3 22.9 C 16.1 km/h
671 22-06-2014 14:40:00 22.6 C 8.04 g/m*3 22.6 C 16.1 km/h
672 22-06-2014 14:45:00 22.5 C 8.39 g/m*3 22.5 C 14.5 km/h
673 22-06-2014 14:50:00 22.6 C 8.24 g/m*3 22.6 C 12.9 km/h
674 22-06-2014 14:55:00 22.5 C 8.39 g/m*3 22.5 C 8.1 km/h
675 22-06-2014 15:00:00 22.4 C 8.74 g/m*3 22.4 C 9.7 km/h
Sensor: Nr:Datum:Temp:Abs-Feuchte:Windchill:Wind:
Aussen-T/F 676 22-06-2014 15:05:00 22.6 C 8.24 g/m*3 22.6 C 14.5 km/h
677 22-06-2014 15:10:00 22.7 C 8.28 g/m*3 22.7 C 9.7 km/h
678 22-06-2014 15:15:00 22.7 C 8.28 g/m*3 22.7 C 9.7 km/h
679 22-06-2014 15:20:00 22.3 C 7.9 g/m*3 22.3 C 6.4 km/h
680 22-06-2014 15:25:00 22.5 C 7.99 g/m*3 22.5 C 12.9 km/h
681 22-06-2014 15:30:00 22.9 C 7.97 g/m*3 22.9 C 12.9 km/h
682 22-06-2014 15:35:00 23.4 C 8.41 g/m*3 23.4 C 14.5 km/h
683 22-06-2014 15:40:00 23.6 C 8.29 g/m*3 23.6 C 17.7 km/h
684 22-06-2014 15:45:00 23.4 C 8.41 g/m*3 23.4 C 16.1 km/h
685 22-06-2014 15:50:00 23.7 C 8.13 g/m*3 23.7 C 12.9 km/h
686 22-06-2014 15:55:00 23.7 C 8.56 g/m*3 23.7 C 11.3 km/h
687 22-06-2014 16:00:00 23.9 C 8 g/m*3 23.9 C 12.9 km/h
688 22-06-2014 16:05:00 23.8 C 7.96 g/m*3 23.8 C 20.9 km/h
689 22-06-2014 16:10:00 23.8 C 8.17 g/m*3 23.8 C 9.7 km/h
690 22-06-2014 16:15:00 24 C 7.83 g/m*3 24 C 12.9 km/h
691 22-06-2014 16:20:00 23.9 C 7.79 g/m*3 23.9 C 9.7 km/h
692 22-06-2014 16:25:00 23.6 C 7.87 g/m*3 23.6 C 12.9 km/h
693 22-06-2014 16:30:00 23.4 C 7.99 g/m*3 23.4 C 6.4 km/h
694 22-06-2014 16:35:00 23.2 C 8.32 g/m*3 23.2 C 9.7 km/h
695 22-06-2014 16:40:00 23.3 C 8.36 g/m*3 23.3 C 16.1 km/h
696 22-06-2014 16:45:00 23.7 C 8.34 g/m*3 23.7 C 11.3 km/h
697 22-06-2014 16:50:00 23.9 C 8.22 g/m*3 23.9 C 11.3 km/h
698 22-06-2014 16:55:00 23.4 C 8.2 g/m*3 23.4 C 11.3 km/h
699 22-06-2014 17:00:00 23.4 C 8.2 g/m*3 23.4 C 11.3 km/h
700 22-06-2014 17:05:00 23.7 C 8.34 g/m*3 23.7 C 17.7 km/h
Sensor: Nr:Datum:Temp:Abs-Feuchte:Windchill:Wind:
Aussen-T/F 701 22-06-2014 17:10:00 23.6 C 8.08 g/m*3 23.6 C 16.1 km/h
702 22-06-2014 17:15:00 23.1 C 7.86 g/m*3 23.1 C 9.7 km/h
703 22-06-2014 17:20:00 22.9 C 8.38 g/m*3 22.9 C 14.5 km/h
704 22-06-2014 17:25:00 23.1 C 8.06 g/m*3 23.1 C 11.3 km/h
705 22-06-2014 17:30:00 23.1 C 8.27 g/m*3 23.1 C 9.7 km/h
706 22-06-2014 17:35:00 23.3 C 8.36 g/m*3 23.3 C 9.7 km/h
707 22-06-2014 17:40:00 23.7 C 8.34 g/m*3 23.7 C 11.3 km/h
708 22-06-2014 17:45:00 23.9 C 8.65 g/m*3 23.9 C 8.1 km/h
709 22-06-2014 17:50:00 23.9 C 8.22 g/m*3 23.9 C 8.1 km/h
710 22-06-2014 17:55:00 23.9 C 8.65 g/m*3 23.9 C 12.9 km/h
711 22-06-2014 18:00:00 23.6 C 8.29 g/m*3 23.6 C 14.5 km/h
712 22-06-2014 18:05:00 22.8 C 8.33 g/m*3 22.8 C 12.9 km/h
713 22-06-2014 18:10:00 22.3 C 8.29 g/m*3 22.3 C 9.7 km/h
714 22-06-2014 18:15:00 21.9 C 8.3 g/m*3 21.9 C 9.7 km/h
715 22-06-2014 18:20:00 21.8 C 8.44 g/m*3 21.8 C 8.1 km/h
716 22-06-2014 18:25:00 21.8 C 8.63 g/m*3 21.8 C 11.3 km/h
717 22-06-2014 18:30:00 21.7 C 8.58 g/m*3 21.7 C 9.7 km/h
718 22-06-2014 18:35:00 21.5 C 8.49 g/m*3 21.5 C 9.7 km/h
719 22-06-2014 18:40:00 21.6 C 8.72 g/m*3 21.6 C 9.7 km/h
720 22-06-2014 18:45:00 22.2 C 8.44 g/m*3 22.2 C 8.1 km/h
721 22-06-2014 18:50:00 22.7 C 8.89 g/m*3 22.7 C 9.7 km/h
722 22-06-2014 18:55:00 23 C 8.43 g/m*3 23 C 9.7 km/h
723 22-06-2014 19:00:00 23.2 C 8.52 g/m*3 23.2 C 8.1 km/h
724 22-06-2014 19:05:00 23.1 C 8.27 g/m*3 23.1 C 9.7 km/h
725 22-06-2014 19:10:00 22.6 C 8.44 g/m*3 22.6 C 12.9 km/h
Sensor: Nr:Datum:Temp:Abs-Feuchte:Windchill:Wind:
Aussen-T/F 726 22-06-2014 19:15:00 22.1 C 8.39 g/m*3 22.1 C 8.1 km/h
727 22-06-2014 19:20:00 21.7 C 8.39 g/m*3 21.7 C 14.5 km/h
728 22-06-2014 19:25:00 21.4 C 8.44 g/m*3 21.4 C 9.7 km/h
729 22-06-2014 19:30:00 21.3 C 8.39 g/m*3 21.3 C 6.4 km/h
730 22-06-2014 19:35:00 21.1 C 8.48 g/m*3 21.1 C 8.1 km/h
731 22-06-2014 19:40:00 20.9 C 8.56 g/m*3 20.9 C 4.8 km/h
732 22-06-2014 19:45:00 20.8 C 8.69 g/m*3 20.8 C 6.4 km/h
733 22-06-2014 19:50:00 20.8 C 8.69 g/m*3 20.8 C 6.4 km/h
734 22-06-2014 19:55:00 20.7 C 8.82 g/m*3 20.7 C 8.1 km/h
735 22-06-2014 20:00:00 20.6 C 8.95 g/m*3 20.6 C 8.1 km/h
736 22-06-2014 20:05:00 20.5 C 8.9 g/m*3 20.5 C 6.4 km/h
737 22-06-2014 20:10:00 20.4 C 8.67 g/m*3 20.4 C 4.8 km/h
738 22-06-2014 20:15:00 20.4 C 8.67 g/m*3 20.4 C 6.4 km/h
739 22-06-2014 20:20:00 20.4 C 8.67 g/m*3 20.4 C 3.2 km/h
740 22-06-2014 20:25:00 20.3 C 8.62 g/m*3 20.3 C 6.4 km/h
741 22-06-2014 20:30:00 20.2 C 8.74 g/m*3 20.2 C 6.4 km/h
742 22-06-2014 20:35:00 20.1 C 8.69 g/m*3 20.1 C 6.4 km/h
743 22-06-2014 20:40:00 19.9 C 8.59 g/m*3 19.9 C 4.8 km/h
744 22-06-2014 20:45:00 19.9 C 8.59 g/m*3 19.9 C 6.4 km/h
745 22-06-2014 20:50:00 19.8 C 8.54 g/m*3 19.8 C 4.8 km/h
746 22-06-2014 20:55:00 19.7 C 8.66 g/m*3 19.7 C 1.6 km/h
747 22-06-2014 21:00:00 19.6 C 8.78 g/m*3 19.6 C 1.6 km/h
748 22-06-2014 21:05:00 19.4 C 8.68 g/m*3 19.4 C 0 km/h
749 22-06-2014 21:10:00 19.3 C 8.96 g/m*3 19.3 C 1.6 km/h
750 22-06-2014 21:15:00 18.9 C 8.91 g/m*3 18.9 C 1.6 km/h
Sensor: Nr:Datum:Temp:Abs-Feuchte:Windchill:Wind:
Aussen-T/F 751 22-06-2014 21:20:00 18.5 C 9.02 g/m*3 18.5 C 0 km/h
752 22-06-2014 21:25:00 18.1 C 9.12 g/m*3 18.1 C 0 km/h
753 22-06-2014 21:30:00 17.6 C 9.15 g/m*3 17.6 C 0 km/h
754 22-06-2014 21:35:00 17.2 C 8.93 g/m*3 17.2 C 0 km/h
755 22-06-2014 21:40:00 16.9 C 9.06 g/m*3 16.9 C 0 km/h
756 22-06-2014 21:45:00 16.7 C 8.95 g/m*3 16.7 C 0 km/h
757 22-06-2014 21:50:00 16.6 C 9.04 g/m*3 16.6 C 0 km/h
758 22-06-2014 21:55:00 16.4 C 8.93 g/m*3 16.4 C 1.6 km/h
759 22-06-2014 22:00:00 16.2 C 8.96 g/m*3 16.2 C 0 km/h
760 22-06-2014 22:05:00 16.1 C 8.91 g/m*3 16.1 C 0 km/h
761 22-06-2014 22:10:00 16 C 8.99 g/m*3 16 C 0 km/h
762 22-06-2014 22:15:00 15.9 C 9.21 g/m*3 15.9 C 0 km/h
763 22-06-2014 22:20:00 15.8 C 9.15 g/m*3 15.8 C 1.6 km/h
764 22-06-2014 22:25:00 15.8 C 9.29 g/m*3 15.8 C 1.6 km/h
765 22-06-2014 22:30:00 15.7 C 9.23 g/m*3 15.7 C 0 km/h
766 22-06-2014 22:35:00 15.7 C 9.23 g/m*3 15.7 C 0 km/h
767 22-06-2014 22:40:00 15.7 C 9.23 g/m*3 15.7 C 0 km/h
768 22-06-2014 22:45:00 15.7 C 9.37 g/m*3 15.7 C 0 km/h
769 22-06-2014 22:50:00 15.7 C 9.37 g/m*3 15.7 C 0 km/h
770 22-06-2014 22:55:00 15.7 C 9.37 g/m*3 15.7 C 0 km/h
771 22-06-2014 23:00:00 15.6 C 9.31 g/m*3 15.6 C 0 km/h
772 22-06-2014 23:05:00 15.5 C 9.25 g/m*3 15.5 C 0 km/h
773 22-06-2014 23:10:00 15.5 C 9.25 g/m*3 15.5 C 0 km/h
774 22-06-2014 23:15:00 15.5 C 9.39 g/m*3 15.5 C 0 km/h
775 22-06-2014 23:20:00 15.5 C 9.39 g/m*3 15.5 C 0 km/h
Sensor: Nr:Datum:Temp:Abs-Feuchte:Windchill:Wind:
Aussen-T/F 776 22-06-2014 23:25:00 15.4 C 9.33 g/m*3 15.4 C 1.6 km/h
777 22-06-2014 23:30:00 15.3 C 9.27 g/m*3 15.3 C 0 km/h
778 22-06-2014 23:35:00 15.2 C 9.22 g/m*3 15.2 C 0 km/h
779 22-06-2014 23:40:00 15.1 C 9.16 g/m*3 15.1 C 0 km/h
780 22-06-2014 23:45:00 15 C 9.23 g/m*3 15 C 0 km/h
781 22-06-2014 23:50:00 14.8 C 9.12 g/m*3 14.8 C 0 km/h
782 22-06-2014 23:55:00 14.7 C 9.19 g/m*3 14.7 C 0 km/h
783 23-06-2014 00:00:00 14.4 C 9.15 g/m*3 14.4 C 0 km/h
784 23-06-2014 00:05:00 14.3 C 9.21 g/m*3 14.3 C 0 km/h
785 23-06-2014 00:10:00 14.3 C 9.21 g/m*3 14.3 C 0 km/h
786 23-06-2014 00:15:00 14.2 C 9.16 g/m*3 14.2 C 1.6 km/h
787 23-06-2014 00:20:00 14.3 C 9.21 g/m*3 14.3 C 1.6 km/h
788 23-06-2014 00:25:00 14.3 C 9.21 g/m*3 14.3 C 0 km/h
789 23-06-2014 00:30:00 14.2 C 9.16 g/m*3 14.2 C 0 km/h
790 23-06-2014 00:35:00 14.1 C 9.1 g/m*3 14.1 C 0 km/h
791 23-06-2014 00:40:00 13.9 C 9.11 g/m*3 13.9 C 0 km/h
792 23-06-2014 00:45:00 13.8 C 9.17 g/m*3 13.8 C 0 km/h
793 23-06-2014 00:50:00 13.7 C 9.24 g/m*3 13.7 C 0 km/h
794 23-06-2014 00:55:00 13.6 C 9.18 g/m*3 13.6 C 1.6 km/h
795 23-06-2014 01:00:00 13.6 C 9.18 g/m*3 13.6 C 0 km/h
796 23-06-2014 01:05:00 13.6 C 9.06 g/m*3 13.6 C 0 km/h
797 23-06-2014 01:10:00 13.4 C 9.07 g/m*3 13.4 C 0 km/h
798 23-06-2014 01:15:00 13.3 C 9.01 g/m*3 13.3 C 0 km/h
799 23-06-2014 01:20:00 13.2 C 9.07 g/m*3 13.2 C 0 km/h
800 23-06-2014 01:25:00 13.2 C 9.07 g/m*3 13.2 C 0 km/h
Sensor: Nr:Datum:Temp:Abs-Feuchte:Windchill:Wind:
Aussen-T/F 801 23-06-2014 01:30:00 13.1 C 9.01 g/m*3 13.1 C 0 km/h
802 23-06-2014 01:35:00 13 C 9.07 g/m*3 13 C 0 km/h
803 23-06-2014 01:40:00 12.9 C 9.02 g/m*3 12.9 C 0 km/h
804 23-06-2014 01:45:00 12.8 C 8.96 g/m*3 12.8 C 0 km/h
805 23-06-2014 01:50:00 12.6 C 8.96 g/m*3 12.6 C 0 km/h
806 23-06-2014 01:55:00 12.4 C 8.96 g/m*3 12.4 C 0 km/h
807 23-06-2014 02:00:00 12.3 C 8.9 g/m*3 12.3 C 0 km/h
808 23-06-2014 02:05:00 12.2 C 8.96 g/m*3 12.2 C 0 km/h
809 23-06-2014 02:10:00 12.1 C 9.01 g/m*3 12.1 C 0 km/h
810 23-06-2014 02:15:00 11.9 C 8.9 g/m*3 11.9 C 0 km/h
811 23-06-2014 02:20:00 11.8 C 8.84 g/m*3 11.8 C 0 km/h
812 23-06-2014 02:25:00 11.8 C 8.95 g/m*3 11.8 C 0 km/h
813 23-06-2014 02:30:00 11.7 C 8.89 g/m*3 11.7 C 0 km/h
814 23-06-2014 02:35:00 11.6 C 8.83 g/m*3 11.6 C 0 km/h
815 23-06-2014 02:40:00 11.6 C 8.94 g/m*3 11.6 C 0 km/h
816 23-06-2014 02:45:00 11.6 C 8.83 g/m*3 11.6 C 0 km/h
817 23-06-2014 02:50:00 11.5 C 8.88 g/m*3 11.5 C 0 km/h
818 23-06-2014 02:55:00 11.4 C 8.83 g/m*3 11.4 C 0 km/h
819 23-06-2014 03:00:00 11.3 C 8.77 g/m*3 11.3 C 0 km/h
820 23-06-2014 03:05:00 11.2 C 8.72 g/m*3 11.2 C 0 km/h
821 23-06-2014 03:10:00 11.2 C 8.82 g/m*3 11.2 C 0 km/h
822 23-06-2014 03:15:00 11.1 C 8.76 g/m*3 11.1 C 0 km/h
823 23-06-2014 03:20:00 10.9 C 8.65 g/m*3 10.9 C 0 km/h
824 23-06-2014 03:25:00 10.9 C 8.75 g/m*3 10.9 C 0 km/h
825 23-06-2014 03:30:00 10.8 C 8.7 g/m*3 10.8 C 0 km/h
Sensor: Nr:Datum:Temp:Abs-Feuchte:Windchill:Wind:
Aussen-T/F 826 23-06-2014 03:35:00 10.8 C 8.7 g/m*3 10.8 C 0 km/h
827 23-06-2014 03:40:00 10.7 C 8.74 g/m*3 10.7 C 0 km/h
828 23-06-2014 03:45:00 10.7 C 8.74 g/m*3 10.7 C 0 km/h
829 23-06-2014 03:50:00 10.6 C 8.69 g/m*3 10.6 C 0 km/h
830 23-06-2014 03:55:00 10.6 C 8.69 g/m*3 10.6 C 0 km/h
831 23-06-2014 04:00:00 10.5 C 8.63 g/m*3 10.5 C 0 km/h
832 23-06-2014 04:05:00 10.4 C 8.67 g/m*3 10.4 C 0 km/h
833 23-06-2014 04:10:00 10.4 C 8.67 g/m*3 10.4 C 0 km/h
834 23-06-2014 04:15:00 10.3 C 8.62 g/m*3 10.3 C 0 km/h
835 23-06-2014 04:20:00 10.3 C 8.62 g/m*3 10.3 C 0 km/h
836 23-06-2014 04:25:00 10.2 C 8.56 g/m*3 10.2 C 0 km/h
837 23-06-2014 04:30:00 10.2 C 8.56 g/m*3 10.2 C 0 km/h
838 23-06-2014 04:35:00 10.1 C 8.51 g/m*3 10.1 C 0 km/h
839 23-06-2014 04:40:00 10.1 C 8.51 g/m*3 10.1 C 0 km/h
840 23-06-2014 04:45:00 10 C 8.55 g/m*3 10 C 0 km/h
841 23-06-2014 04:50:00 9.9 C 8.5 g/m*3 9.9 C 0 km/h
842 23-06-2014 04:55:00 9.9 C 8.5 g/m*3 9.9 C 0 km/h
843 23-06-2014 05:00:00 9.8 C 8.44 g/m*3 9.8 C 0 km/h
844 23-06-2014 05:05:00 9.8 C 8.44 g/m*3 9.8 C 0 km/h
845 23-06-2014 05:10:00 9.8 C 8.44 g/m*3 9.8 C 0 km/h
846 23-06-2014 05:15:00 9.8 C 8.54 g/m*3 9.8 C 0 km/h
847 23-06-2014 05:20:00 9.8 C 8.54 g/m*3 9.8 C 0 km/h
848 23-06-2014 05:25:00 9.8 C 8.54 g/m*3 9.8 C 0 km/h
849 23-06-2014 05:30:00 9.8 C 8.54 g/m*3 9.8 C 1.6 km/h
850 23-06-2014 05:35:00 9.8 C 8.54 g/m*3 9.8 C 0 km/h
Sensor: Nr:Datum:Temp:Abs-Feuchte:Windchill:Wind:
Aussen-T/F 851 23-06-2014 05:40:00 9.8 C 8.54 g/m*3 9.8 C 0 km/h
852 23-06-2014 05:45:00 9.8 C 8.54 g/m*3 9.8 C 0 km/h
853 23-06-2014 05:50:00 9.9 C 8.59 g/m*3 9.9 C 0 km/h
854 23-06-2014 05:55:00 9.9 C 8.59 g/m*3 9.9 C 0 km/h
855 23-06-2014 06:00:00 9.9 C 8.59 g/m*3 9.9 C 0 km/h
856 23-06-2014 06:05:00 9.9 C 8.59 g/m*3 9.9 C 0 km/h
857 23-06-2014 06:10:00 9.9 C 8.59 g/m*3 9.9 C 0 km/h
858 23-06-2014 06:15:00 10 C 8.55 g/m*3 10 C 0 km/h
859 23-06-2014 06:20:00 10.1 C 8.61 g/m*3 10.1 C 0 km/h
860 23-06-2014 06:25:00 10 C 8.55 g/m*3 10 C 0 km/h
861 23-06-2014 06:30:00 10 C 8.55 g/m*3 10 C 0 km/h
862 23-06-2014 06:35:00 9.9 C 8.5 g/m*3 9.9 C 0 km/h
863 23-06-2014 06:40:00 9.9 C 8.59 g/m*3 9.9 C 0 km/h
864 23-06-2014 06:45:00 9.9 C 8.5 g/m*3 9.9 C 0 km/h
865 23-06-2014 06:50:00 9.9 C 8.59 g/m*3 9.9 C 0 km/h
866 23-06-2014 06:55:00 9.9 C 8.59 g/m*3 9.9 C 0 km/h
867 23-06-2014 07:00:00 9.9 C 8.59 g/m*3 9.9 C 0 km/h
868 23-06-2014 07:05:00 9.9 C 8.59 g/m*3 9.9 C 0 km/h
869 23-06-2014 07:10:00 10 C 8.64 g/m*3 10 C 0 km/h
870 23-06-2014 07:15:00 10.1 C 8.7 g/m*3 10.1 C 0 km/h
871 23-06-2014 07:20:00 10.2 C 8.76 g/m*3 10.2 C 0 km/h
872 23-06-2014 07:25:00 10.3 C 8.81 g/m*3 10.3 C 0 km/h
873 23-06-2014 07:30:00 10.6 C 9.08 g/m*3 10.6 C 0 km/h
874 23-06-2014 07:35:00 10.7 C 9.13 g/m*3 10.7 C 0 km/h
875 23-06-2014 07:40:00 10.9 C 9.15 g/m*3 10.9 C 0 km/h
Sensor: Nr:Datum:Temp:Abs-Feuchte:Windchill:Wind:
Aussen-T/F 876 23-06-2014 07:45:00 11.1 C 9.27 g/m*3 11.1 C 0 km/h
877 23-06-2014 07:50:00 11.2 C 9.33 g/m*3 11.2 C 0 km/h
878 23-06-2014 07:55:00 11.3 C 9.28 g/m*3 11.3 C 0 km/h
879 23-06-2014 08:00:00 11.6 C 9.46 g/m*3 11.6 C 0 km/h
880 23-06-2014 08:05:00 11.8 C 9.47 g/m*3 11.8 C 0 km/h
881 23-06-2014 08:10:00 12.1 C 9.54 g/m*3 12.1 C 0 km/h
882 23-06-2014 08:15:00 12.3 C 9.45 g/m*3 12.3 C 0 km/h
883 23-06-2014 08:20:00 12.8 C 9.63 g/m*3 12.8 C 0 km/h
884 23-06-2014 08:25:00 13.2 C 9.76 g/m*3 13.2 C 0 km/h
885 23-06-2014 08:30:00 13.5 C 9.71 g/m*3 13.5 C 1.6 km/h
886 23-06-2014 08:35:00 13.7 C 9.71 g/m*3 13.7 C 1.6 km/h
887 23-06-2014 08:40:00 13.9 C 9.59 g/m*3 13.9 C 0 km/h
888 23-06-2014 08:45:00 14.1 C 9.83 g/m*3 14.1 C 0 km/h
889 23-06-2014 08:50:00 14.4 C 9.89 g/m*3 14.4 C 3.2 km/h
890 23-06-2014 08:55:00 14.7 C 9.95 g/m*3 14.7 C 4.8 km/h
891 23-06-2014 09:00:00 15 C 9.87 g/m*3 15 C 4.8 km/h
892 23-06-2014 09:05:00 15.2 C 9.86 g/m*3 15.2 C 1.6 km/h
893 23-06-2014 09:10:00 15.2 C 9.86 g/m*3 15.2 C 3.2 km/h
894 23-06-2014 09:15:00 15.3 C 9.92 g/m*3 15.3 C 6.4 km/h
895 23-06-2014 09:20:00 15.2 C 9.86 g/m*3 15.2 C 6.4 km/h
896 23-06-2014 09:25:00 15.2 C 9.73 g/m*3 15.2 C 1.6 km/h
897 23-06-2014 09:30:00 15.2 C 9.73 g/m*3 15.2 C 4.8 km/h
898 23-06-2014 09:35:00 15.3 C 9.79 g/m*3 15.3 C 4.8 km/h
899 23-06-2014 09:40:00 15.5 C 9.91 g/m*3 15.5 C 3.2 km/h
900 23-06-2014 09:45:00 15.8 C 9.69 g/m*3 15.8 C 4.8 km/h
Sensor: Nr:Datum:Temp:Abs-Feuchte:Windchill:Wind:
Aussen-T/F 901 23-06-2014 09:50:00 15.9 C 9.62 g/m*3 15.9 C 4.8 km/h
902 23-06-2014 09:55:00 16.2 C 9.65 g/m*3 16.2 C 4.8 km/h
903 23-06-2014 10:00:00 16.5 C 9.97 g/m*3 16.5 C 6.4 km/h
904 23-06-2014 10:05:00 17.1 C 9.9 g/m*3 17.1 C 6.4 km/h
905 23-06-2014 10:10:00 17.4 C 9.63 g/m*3 17.4 C 6.4 km/h
906 23-06-2014 10:15:00 17.6 C 9.75 g/m*3 17.6 C 8.1 km/h
907 23-06-2014 10:20:00 17.9 C 9.77 g/m*3 17.9 C 8.1 km/h
908 23-06-2014 10:25:00 17.9 C 9.62 g/m*3 17.9 C 8.1 km/h
909 23-06-2014 10:30:00 17.7 C 9.35 g/m*3 17.7 C 8.1 km/h
910 23-06-2014 10:35:00 17.8 C 9.56 g/m*3 17.8 C 6.4 km/h
911 23-06-2014 10:40:00 17.9 C 9.47 g/m*3 17.9 C 8.1 km/h
912 23-06-2014 10:45:00 18.2 C 9.64 g/m*3 18.2 C 6.4 km/h
913 23-06-2014 10:50:00 18.5 C 9.49 g/m*3 18.5 C 8.1 km/h
914 23-06-2014 10:55:00 18.4 C 9.12 g/m*3 18.4 C 8.1 km/h
915 23-06-2014 11:00:00 18.3 C 9.54 g/m*3 18.3 C 9.7 km/h
916 23-06-2014 11:05:00 18.5 C 9.33 g/m*3 18.5 C 9.7 km/h
917 23-06-2014 11:10:00 18.6 C 9.39 g/m*3 18.6 C 8.1 km/h
918 23-06-2014 11:15:00 18.7 C 9.61 g/m*3 18.7 C 9.7 km/h
919 23-06-2014 11:20:00 18.9 C 9.4 g/m*3 18.9 C 6.4 km/h
920 23-06-2014 11:25:00 19.1 C 9.67 g/m*3 19.1 C 8.1 km/h
921 23-06-2014 11:30:00 19.3 C 9.62 g/m*3 19.3 C 4.8 km/h
922 23-06-2014 11:35:00 19.6 C 9.45 g/m*3 19.6 C 8.1 km/h
923 23-06-2014 11:40:00 19.6 C 9.28 g/m*3 19.6 C 8.1 km/h
924 23-06-2014 11:45:00 19.8 C 9.22 g/m*3 19.8 C 11.3 km/h
925 23-06-2014 11:50:00 19.9 C 9.11 g/m*3 19.9 C 9.7 km/h
Sensor: Nr:Datum:Temp:Abs-Feuchte:Windchill:Wind:
Aussen-T/F 926 23-06-2014 11:55:00 19.8 C 9.39 g/m*3 19.8 C 8.1 km/h
927 23-06-2014 12:00:00 19.8 C 9.39 g/m*3 19.8 C 8.1 km/h
928 23-06-2014 12:05:00 19.8 C 9.39 g/m*3 19.8 C 11.3 km/h
929 23-06-2014 12:10:00 19.8 C 9.22 g/m*3 19.8 C 12.9 km/h
930 23-06-2014 12:15:00 20.2 C 9.27 g/m*3 20.2 C 12.9 km/h
931 23-06-2014 12:20:00 20.3 C 8.97 g/m*3 20.3 C 8.1 km/h
932 23-06-2014 12:25:00 20.5 C 9.43 g/m*3 20.5 C 8.1 km/h
933 23-06-2014 12:30:00 20.6 C 9.31 g/m*3 20.6 C 9.7 km/h
934 23-06-2014 12:35:00 20.7 C 9.36 g/m*3 20.7 C 6.4 km/h
935 23-06-2014 12:40:00 20.6 C 9.13 g/m*3 20.6 C 9.7 km/h
936 23-06-2014 12:45:00 20.7 C 9.18 g/m*3 20.7 C 11.3 km/h
937 23-06-2014 12:50:00 21 C 8.98 g/m*3 21 C 11.3 km/h
938 23-06-2014 12:55:00 20.9 C 9.29 g/m*3 20.9 C 12.9 km/h
939 23-06-2014 13:00:00 21 C 9.53 g/m*3 21 C 8.1 km/h
940 23-06-2014 13:05:00 20.9 C 9.47 g/m*3 20.9 C 6.4 km/h
941 23-06-2014 13:10:00 20.8 C 9.23 g/m*3 20.8 C 6.4 km/h
942 23-06-2014 13:15:00 21.1 C 8.84 g/m*3 21.1 C 12.9 km/h
943 23-06-2014 13:20:00 21.3 C 8.95 g/m*3 21.3 C 12.9 km/h
944 23-06-2014 13:25:00 21.3 C 8.76 g/m*3 21.3 C 9.7 km/h
945 23-06-2014 13:30:00 21.7 C 9.92 g/m*3 21.7 C 9.7 km/h
946 23-06-2014 13:35:00 22 C 9.32 g/m*3 22 C 14.5 km/h
947 23-06-2014 13:40:00 21.8 C 9.21 g/m*3 21.8 C 11.3 km/h
948 23-06-2014 13:45:00 21.7 C 9.16 g/m*3 21.7 C 6.4 km/h
949 23-06-2014 13:50:00 21.9 C 9.07 g/m*3 21.9 C 11.3 km/h
950 23-06-2014 13:55:00 21.9 C 9.07 g/m*3 21.9 C 8.1 km/h
Sensor: Nr:Datum:Temp:Abs-Feuchte:Windchill:Wind:
Aussen-T/F 951 23-06-2014 14:00:00 21.9 C 9.26 g/m*3 21.9 C 9.7 km/h
952 23-06-2014 14:05:00 21.9 C 8.88 g/m*3 21.9 C 9.7 km/h
953 23-06-2014 14:10:00 21.9 C 8.88 g/m*3 21.9 C 8.1 km/h
954 23-06-2014 14:15:00 21.9 C 9.46 g/m*3 21.9 C 11.3 km/h
955 23-06-2014 14:20:00 22.3 C 9.48 g/m*3 22.3 C 9.7 km/h
956 23-06-2014 14:25:00 22.4 C 9.33 g/m*3 22.4 C 14.5 km/h
957 23-06-2014 14:30:00 22.6 C 9.44 g/m*3 22.6 C 11.3 km/h
958 23-06-2014 14:35:00 22.4 C 8.74 g/m*3 22.4 C 4.8 km/h
959 23-06-2014 14:40:00 22.3 C 9.28 g/m*3 22.3 C 8.1 km/h
960 23-06-2014 14:45:00 22.7 C 8.89 g/m*3 22.7 C 9.7 km/h
961 23-06-2014 14:50:00 22.9 C 8.99 g/m*3 22.9 C 9.7 km/h
962 23-06-2014 14:55:00 23.1 C 9.1 g/m*3 23.1 C 4.8 km/h
963 23-06-2014 15:00:00 23 C 8.63 g/m*3 23 C 8.1 km/h
964 23-06-2014 15:05:00 23 C 8.84 g/m*3 23 C 4.8 km/h
965 23-06-2014 15:10:00 23.1 C 8.89 g/m*3 23.1 C 3.2 km/h
966 23-06-2014 15:15:00 23.3 C 9.41 g/m*3 23.3 C 11.3 km/h
967 23-06-2014 15:20:00 23.3 C 9.41 g/m*3 23.3 C 8.1 km/h
968 23-06-2014 15:25:00 23.8 C 8.6 g/m*3 23.8 C 8.1 km/h
969 23-06-2014 15:30:00 23.9 C 8.22 g/m*3 23.9 C 8.1 km/h
970 23-06-2014 15:35:00 24.1 C 9.19 g/m*3 24.1 C 9.7 km/h
971 23-06-2014 15:40:00 24.3 C 8.63 g/m*3 24.3 C 11.3 km/h
972 23-06-2014 15:45:00 24.3 C 8.63 g/m*3 24.3 C 6.4 km/h
973 23-06-2014 15:50:00 24.2 C 8.8 g/m*3 24.2 C 11.3 km/h
974 23-06-2014 15:55:00 24.1 C 9.19 g/m*3 24.1 C 9.7 km/h
975 23-06-2014 16:00:00 23.9 C 8.65 g/m*3 23.9 C 11.3 km/h
Sensor: Nr:Datum:Temp:Abs-Feuchte:Windchill:Wind:
Aussen-T/F 976 23-06-2014 16:05:00 24.1 C 9.41 g/m*3 24.1 C 9.7 km/h
977 23-06-2014 16:10:00 24.3 C 8.63 g/m*3 24.3 C 9.7 km/h
978 23-06-2014 16:15:00 24.2 C 8.8 g/m*3 24.2 C 8.1 km/h
979 23-06-2014 16:20:00 24.1 C 8.75 g/m*3 24.1 C 8.1 km/h
980 23-06-2014 16:25:00 23.9 C 8.65 g/m*3 23.9 C 11.3 km/h
981 23-06-2014 16:30:00 23.9 C 8.65 g/m*3 23.9 C 11.3 km/h
982 23-06-2014 16:35:00 23.9 C 8.44 g/m*3 23.9 C 6.4 km/h
983 23-06-2014 16:40:00 24.1 C 8.97 g/m*3 24.1 C 14.5 km/h
984 23-06-2014 16:45:00 24.7 C 8.83 g/m*3 24.7 C 11.3 km/h
985 23-06-2014 16:50:00 24.6 C 8.55 g/m*3 24.6 C 14.5 km/h
986 23-06-2014 16:55:00 24.5 C 8.5 g/m*3 24.5 C 8.1 km/h
987 23-06-2014 17:00:00 24.4 C 8.9 g/m*3 24.4 C 8.1 km/h
988 23-06-2014 17:05:00 24.3 C 9.07 g/m*3 24.3 C 11.3 km/h
989 23-06-2014 17:10:00 24.6 C 9 g/m*3 24.6 C 8.1 km/h
990 23-06-2014 17:15:00 24.7 C 9.05 g/m*3 24.7 C 4.8 km/h
991 23-06-2014 17:20:00 24.3 C 8.85 g/m*3 24.3 C 9.7 km/h
992 23-06-2014 17:25:00 23.8 C 9.03 g/m*3 23.8 C 8.1 km/h
993 23-06-2014 17:30:00 23.8 C 8.82 g/m*3 23.8 C 12.9 km/h
994 23-06-2014 17:35:00 23.8 C 8.82 g/m*3 23.8 C 11.3 km/h
995 23-06-2014 17:40:00 24 C 9.14 g/m*3 24 C 16.1 km/h
996 23-06-2014 17:45:00 24.1 C 8.97 g/m*3 24.1 C 6.4 km/h
997 23-06-2014 17:50:00 24.1 C 8.97 g/m*3 24.1 C 9.7 km/h
998 23-06-2014 17:55:00 24.2 C 8.8 g/m*3 24.2 C 11.3 km/h
999 23-06-2014 18:00:00 23.8 C 8.82 g/m*3 23.8 C 9.7 km/h
1000 23-06-2014 18:05:00 23.8 C 8.82 g/m*3 23.8 C 8.1 km/h
Sensor: Nr:Datum:Temp:Abs-Feuchte:Windchill:Wind:
Aussen-T/F 1001 23-06-2014 18:10:00 23.6 C 8.72 g/m*3 23.6 C 9.7 km/h
1002 23-06-2014 18:15:00 23.3 C 8.78 g/m*3 23.3 C 8.1 km/h
1003 23-06-2014 18:20:00 23.3 C 8.78 g/m*3 23.3 C 9.7 km/h
1004 23-06-2014 18:25:00 23.2 C 8.73 g/m*3 23.2 C 9.7 km/h
1005 23-06-2014 18:30:00 23.2 C 8.73 g/m*3 23.2 C 9.7 km/h
1006 23-06-2014 18:35:00 23.3 C 8.99 g/m*3 23.3 C 4.8 km/h
1007 23-06-2014 18:40:00 23.3 C 8.99 g/m*3 23.3 C 9.7 km/h
1008 23-06-2014 18:45:00 23.4 C 9.04 g/m*3 23.4 C 11.3 km/h
1009 23-06-2014 18:50:00 23.4 C 8.83 g/m*3 23.4 C 11.3 km/h
1010 23-06-2014 18:55:00 23.6 C 8.93 g/m*3 23.6 C 11.3 km/h
1011 23-06-2014 19:00:00 23.6 C 8.72 g/m*3 23.6 C 12.9 km/h
1012 23-06-2014 19:05:00 23.3 C 8.78 g/m*3 23.3 C 9.7 km/h
1013 23-06-2014 19:10:00 22.8 C 8.74 g/m*3 22.8 C 11.3 km/h
1014 23-06-2014 19:15:00 22.6 C 8.84 g/m*3 22.6 C 11.3 km/h
1015 23-06-2014 19:20:00 22.6 C 8.84 g/m*3 22.6 C 12.9 km/h
1016 23-06-2014 19:25:00 22.4 C 8.94 g/m*3 22.4 C 9.7 km/h
1017 23-06-2014 19:30:00 22.3 C 8.89 g/m*3 22.3 C 9.7 km/h
1018 23-06-2014 19:35:00 22.3 C 8.89 g/m*3 22.3 C 9.7 km/h
1019 23-06-2014 19:40:00 22.1 C 8.78 g/m*3 22.1 C 11.3 km/h
1020 23-06-2014 19:45:00 21.9 C 8.88 g/m*3 21.9 C 9.7 km/h
1021 23-06-2014 19:50:00 21.8 C 8.63 g/m*3 21.8 C 9.7 km/h
1022 23-06-2014 19:55:00 21.6 C 8.91 g/m*3 21.6 C 4.8 km/h
1023 23-06-2014 20:00:00 21.6 C 8.91 g/m*3 21.6 C 9.7 km/h
1024 23-06-2014 20:05:00 21.5 C 8.86 g/m*3 21.5 C 6.4 km/h
1025 23-06-2014 20:10:00 21.5 C 8.86 g/m*3 21.5 C 6.4 km/h
Sensor: Nr:Datum:Temp:Abs-Feuchte:Windchill:Wind:
Aussen-T/F 1026 23-06-2014 20:15:00 21.4 C 8.81 g/m*3 21.4 C 6.4 km/h
1027 23-06-2014 20:20:00 21.5 C 9.05 g/m*3 21.5 C 9.7 km/h
1028 23-06-2014 20:25:00 21.5 C 8.86 g/m*3 21.5 C 8.1 km/h
1029 23-06-2014 20:30:00 21.4 C 8.81 g/m*3 21.4 C 8.1 km/h
1030 23-06-2014 20:35:00 21.3 C 8.95 g/m*3 21.3 C 8.1 km/h
1031 23-06-2014 20:40:00 21.1 C 9.03 g/m*3 21.1 C 9.7 km/h
1032 23-06-2014 20:45:00 20.9 C 8.74 g/m*3 20.9 C 11.3 km/h
1033 23-06-2014 20:50:00 20.7 C 8.82 g/m*3 20.7 C 8.1 km/h
1034 23-06-2014 20:55:00 20.7 C 8.82 g/m*3 20.7 C 8.1 km/h
1035 23-06-2014 21:00:00 20.6 C 8.95 g/m*3 20.6 C 11.3 km/h
1036 23-06-2014 21:05:00 20.4 C 9.02 g/m*3 20.4 C 8.1 km/h
1037 23-06-2014 21:10:00 20.4 C 9.02 g/m*3 20.4 C 4.8 km/h
1038 23-06-2014 21:15:00 20.3 C 8.97 g/m*3 20.3 C 4.8 km/h
1039 23-06-2014 21:20:00 20.3 C 8.97 g/m*3 20.3 C 3.2 km/h
1040 23-06-2014 21:25:00 20.1 C 9.04 g/m*3 20.1 C 9.7 km/h
1041 23-06-2014 21:30:00 20 C 8.99 g/m*3 20 C 3.2 km/h
1042 23-06-2014 21:35:00 19.9 C 9.11 g/m*3 19.9 C 6.4 km/h
1043 23-06-2014 21:40:00 19.7 C 9.17 g/m*3 19.7 C 3.2 km/h
1044 23-06-2014 21:45:00 19.6 C 9.12 g/m*3 19.6 C 1.6 km/h
1045 23-06-2014 21:50:00 19.3 C 9.29 g/m*3 19.3 C 0 km/h
1046 23-06-2014 21:55:00 18.9 C 9.4 g/m*3 18.9 C 0 km/h
1047 23-06-2014 22:00:00 18.4 C 9.44 g/m*3 18.4 C 0 km/h
1048 23-06-2014 22:05:00 17.8 C 9.41 g/m*3 17.8 C 0 km/h
1049 23-06-2014 22:10:00 17.4 C 9.48 g/m*3 17.4 C 0 km/h
1050 23-06-2014 22:15:00 17.1 C 9.32 g/m*3 17.1 C 0 km/h
Sensor: Nr:Datum:Temp:Abs-Feuchte:Windchill:Wind:
Aussen-T/F 1051 23-06-2014 22:20:00 16.8 C 9.29 g/m*3 16.8 C 0 km/h
1052 23-06-2014 22:25:00 16.7 C 9.38 g/m*3 16.7 C 1.6 km/h
1053 23-06-2014 22:30:00 16.7 C 9.38 g/m*3 16.7 C 4.8 km/h
1054 23-06-2014 22:35:00 16.6 C 9.32 g/m*3 16.6 C 0 km/h
1055 23-06-2014 22:40:00 16.3 C 9.3 g/m*3 16.3 C 0 km/h
1056 23-06-2014 22:45:00 16.2 C 9.38 g/m*3 16.2 C 0 km/h
1057 23-06-2014 22:50:00 16.1 C 9.32 g/m*3 16.1 C 0 km/h
1058 23-06-2014 22:55:00 15.9 C 9.21 g/m*3 15.9 C 0 km/h
1059 23-06-2014 23:00:00 15.9 C 9.34 g/m*3 15.9 C 0 km/h
1060 23-06-2014 23:05:00 15.9 C 9.34 g/m*3 15.9 C 0 km/h
1061 23-06-2014 23:10:00 15.8 C 9.29 g/m*3 15.8 C 0 km/h
1062 23-06-2014 23:15:00 15.7 C 9.37 g/m*3 15.7 C 0 km/h
1063 23-06-2014 23:20:00 15.6 C 9.31 g/m*3 15.6 C 0 km/h
1064 23-06-2014 23:25:00 15.6 C 9.31 g/m*3 15.6 C 0 km/h
1065 23-06-2014 23:30:00 15.4 C 9.33 g/m*3 15.4 C 0 km/h
1066 23-06-2014 23:35:00 15.4 C 9.33 g/m*3 15.4 C 0 km/h
1067 23-06-2014 23:40:00 15.3 C 9.27 g/m*3 15.3 C 0 km/h
1068 23-06-2014 23:45:00 15.2 C 9.35 g/m*3 15.2 C 0 km/h
1069 23-06-2014 23:50:00 15.1 C 9.29 g/m*3 15.1 C 0 km/h
1070 23-06-2014 23:55:00 15.1 C 9.29 g/m*3 15.1 C 0 km/h
1071 24-06-2014 00:00:00 15.1 C 9.29 g/m*3 15.1 C 0 km/h
1072 24-06-2014 00:05:00 15 C 9.36 g/m*3 15 C 0 km/h
1073 24-06-2014 00:10:00 14.9 C 9.3 g/m*3 14.9 C 0 km/h
1074 24-06-2014 00:15:00 14.9 C 9.3 g/m*3 14.9 C 0 km/h
1075 24-06-2014 00:20:00 14.8 C 9.37 g/m*3 14.8 C 0 km/h
Sensor: Nr:Datum:Temp:Abs-Feuchte:Windchill:Wind:
Aussen-T/F 1076 24-06-2014 00:25:00 14.8 C 9.37 g/m*3 14.8 C 0 km/h
1077 24-06-2014 00:30:00 14.7 C 9.44 g/m*3 14.7 C 0 km/h
1078 24-06-2014 00:35:00 14.6 C 9.39 g/m*3 14.6 C 0 km/h
1079 24-06-2014 00:40:00 14.5 C 9.33 g/m*3 14.5 C 0 km/h
1080 24-06-2014 00:45:00 14.4 C 9.27 g/m*3 14.4 C 0 km/h
1081 24-06-2014 00:50:00 14.3 C 9.34 g/m*3 14.3 C 0 km/h
1082 24-06-2014 00:55:00 14.3 C 9.34 g/m*3 14.3 C 0 km/h
1083 24-06-2014 01:00:00 14.2 C 9.28 g/m*3 14.2 C 0 km/h
1084 24-06-2014 01:05:00 14.1 C 9.34 g/m*3 14.1 C 0 km/h
1085 24-06-2014 01:10:00 13.9 C 9.23 g/m*3 13.9 C 0 km/h
1086 24-06-2014 01:15:00 13.8 C 9.17 g/m*3 13.8 C 0 km/h
1087 24-06-2014 01:20:00 13.7 C 9.24 g/m*3 13.7 C 0 km/h
1088 24-06-2014 01:25:00 13.6 C 9.18 g/m*3 13.6 C 0 km/h
1089 24-06-2014 01:30:00 13.5 C 9.24 g/m*3 13.5 C 0 km/h
1090 24-06-2014 01:35:00 13.4 C 9.18 g/m*3 13.4 C 0 km/h
1091 24-06-2014 01:40:00 13.3 C 9.24 g/m*3 13.3 C 0 km/h
1092 24-06-2014 01:45:00 13.3 C 9.24 g/m*3 13.3 C 0 km/h
1093 24-06-2014 01:50:00 13.2 C 9.3 g/m*3 13.2 C 0 km/h
1094 24-06-2014 01:55:00 13.1 C 9.24 g/m*3 13.1 C 0 km/h
1095 24-06-2014 02:00:00 13 C 9.19 g/m*3 13 C 0 km/h
1096 24-06-2014 02:05:00 12.8 C 9.07 g/m*3 12.8 C 0 km/h
1097 24-06-2014 02:10:00 12.8 C 9.18 g/m*3 12.8 C 0 km/h
1098 24-06-2014 02:15:00 12.7 C 9.13 g/m*3 12.7 C 0 km/h
1099 24-06-2014 02:20:00 12.6 C 9.07 g/m*3 12.6 C 0 km/h
1100 24-06-2014 02:25:00 12.6 C 9.18 g/m*3 12.6 C 0 km/h
Sensor: Nr:Datum:Temp:Abs-Feuchte:Windchill:Wind:
Aussen-T/F 1101 24-06-2014 02:30:00 12.5 C 9.13 g/m*3 12.5 C 0 km/h
1102 24-06-2014 02:35:00 12.4 C 9.07 g/m*3 12.4 C 0 km/h
1103 24-06-2014 02:40:00 12.3 C 9.01 g/m*3 12.3 C 0 km/h
1104 24-06-2014 02:45:00 12.2 C 9.06 g/m*3 12.2 C 0 km/h
1105 24-06-2014 02:50:00 12.1 C 9.01 g/m*3 12.1 C 0 km/h
1106 24-06-2014 02:55:00 12 C 8.95 g/m*3 12 C 0 km/h
1107 24-06-2014 03:00:00 11.9 C 9 g/m*3 11.9 C 0 km/h
1108 24-06-2014 03:05:00 11.8 C 8.95 g/m*3 11.8 C 0 km/h
1109 24-06-2014 03:10:00 11.8 C 8.95 g/m*3 11.8 C 0 km/h
1110 24-06-2014 03:15:00 11.7 C 8.99 g/m*3 11.7 C 0 km/h
1111 24-06-2014 03:20:00 11.7 C 8.99 g/m*3 11.7 C 0 km/h
1112 24-06-2014 03:25:00 11.6 C 8.94 g/m*3 11.6 C 0 km/h
1113 24-06-2014 03:30:00 11.6 C 8.94 g/m*3 11.6 C 0 km/h
1114 24-06-2014 03:35:00 11.5 C 8.99 g/m*3 11.5 C 0 km/h
1115 24-06-2014 03:40:00 11.4 C 8.93 g/m*3 11.4 C 0 km/h
1116 24-06-2014 03:45:00 11.4 C 8.93 g/m*3 11.4 C 0 km/h
1117 24-06-2014 03:50:00 11.3 C 8.87 g/m*3 11.3 C 0 km/h
1118 24-06-2014 03:55:00 11.2 C 8.82 g/m*3 11.2 C 0 km/h
1119 24-06-2014 04:00:00 11.2 C 8.92 g/m*3 11.2 C 0 km/h
1120 24-06-2014 04:05:00 11.1 C 8.86 g/m*3 11.1 C 0 km/h
1121 24-06-2014 04:10:00 11 C 8.81 g/m*3 11 C 0 km/h
1122 24-06-2014 04:15:00 10.9 C 8.85 g/m*3 10.9 C 0 km/h
1123 24-06-2014 04:20:00 10.9 C 8.85 g/m*3 10.9 C 0 km/h
1124 24-06-2014 04:25:00 10.8 C 8.8 g/m*3 10.8 C 0 km/h
1125 24-06-2014 04:30:00 10.8 C 8.8 g/m*3 10.8 C 0 km/h
Sensor: Nr:Datum:Temp:Abs-Feuchte:Windchill:Wind:
Aussen-T/F 1126 24-06-2014 04:35:00 10.7 C 8.74 g/m*3 10.7 C 0 km/h
1127 24-06-2014 04:40:00 10.7 C 8.84 g/m*3 10.7 C 0 km/h
1128 24-06-2014 04:45:00 10.7 C 8.84 g/m*3 10.7 C 0 km/h
1129 24-06-2014 04:50:00 10.6 C 8.78 g/m*3 10.6 C 0 km/h
1130 24-06-2014 04:55:00 10.6 C 8.78 g/m*3 10.6 C 0 km/h
1131 24-06-2014 05:00:00 10.5 C 8.83 g/m*3 10.5 C 0 km/h
1132 24-06-2014 05:05:00 10.4 C 8.77 g/m*3 10.4 C 0 km/h
1133 24-06-2014 05:10:00 10.4 C 8.77 g/m*3 10.4 C 0 km/h
1134 24-06-2014 05:15:00 10.4 C 8.77 g/m*3 10.4 C 0 km/h
1135 24-06-2014 05:20:00 10.4 C 8.77 g/m*3 10.4 C 0 km/h
1136 24-06-2014 05:25:00 10.3 C 8.71 g/m*3 10.3 C 0 km/h
1137 24-06-2014 05:30:00 10.3 C 8.71 g/m*3 10.3 C 0 km/h
1138 24-06-2014 05:35:00 10.3 C 8.81 g/m*3 10.3 C 0 km/h
1139 24-06-2014 05:40:00 10.3 C 8.81 g/m*3 10.3 C 0 km/h
1140 24-06-2014 05:45:00 10.3 C 8.81 g/m*3 10.3 C 0 km/h
1141 24-06-2014 05:50:00 10.3 C 8.81 g/m*3 10.3 C 0 km/h
1142 24-06-2014 05:55:00 10.3 C 8.81 g/m*3 10.3 C 0 km/h
1143 24-06-2014 06:00:00 10.2 C 8.76 g/m*3 10.2 C 0 km/h
1144 24-06-2014 06:05:00 10.3 C 8.81 g/m*3 10.3 C 0 km/h
1145 24-06-2014 06:10:00 10.2 C 8.76 g/m*3 10.2 C 0 km/h
1146 24-06-2014 06:15:00 10.2 C 8.76 g/m*3 10.2 C 0 km/h
1147 24-06-2014 06:20:00 10.3 C 8.81 g/m*3 10.3 C 0 km/h
1148 24-06-2014 06:25:00 10.2 C 8.76 g/m*3 10.2 C 0 km/h
1149 24-06-2014 06:30:00 10.3 C 8.81 g/m*3 10.3 C 0 km/h
1150 24-06-2014 06:35:00 10.3 C 8.91 g/m*3 10.3 C 0 km/h
Sensor: Nr:Datum:Temp:Abs-Feuchte:Windchill:Wind:
Aussen-T/F 1151 24-06-2014 06:40:00 10.3 C 8.91 g/m*3 10.3 C 0 km/h
1152 24-06-2014 06:45:00 10.4 C 8.96 g/m*3 10.4 C 0 km/h
1153 24-06-2014 06:50:00 10.4 C 8.87 g/m*3 10.4 C 0 km/h
1154 24-06-2014 06:55:00 10.6 C 8.98 g/m*3 10.6 C 0 km/h
1155 24-06-2014 07:00:00 10.6 C 9.08 g/m*3 10.6 C 3.2 km/h
1156 24-06-2014 07:05:00 10.8 C 9.19 g/m*3 10.8 C 3.2 km/h
1157 24-06-2014 07:10:00 10.9 C 9.15 g/m*3 10.9 C 0 km/h
1158 24-06-2014 07:15:00 11.1 C 9.27 g/m*3 11.1 C 0 km/h
1159 24-06-2014 07:20:00 11.1 C 9.17 g/m*3 11.1 C 0 km/h
1160 24-06-2014 07:25:00 11.2 C 9.22 g/m*3 11.2 C 0 km/h
1161 24-06-2014 07:30:00 11.2 C 9.22 g/m*3 11.2 C 0 km/h
1162 24-06-2014 07:35:00 11.3 C 9.28 g/m*3 11.3 C 1.6 km/h
1163 24-06-2014 07:40:00 11.5 C 9.4 g/m*3 11.5 C 0 km/h
1164 24-06-2014 07:45:00 11.6 C 9.35 g/m*3 11.6 C 1.6 km/h
1165 24-06-2014 07:50:00 11.8 C 9.47 g/m*3 11.8 C 0 km/h
1166 24-06-2014 07:55:00 12 C 9.59 g/m*3 12 C 0 km/h
1167 24-06-2014 08:00:00 12.2 C 9.6 g/m*3 12.2 C 0 km/h
1168 24-06-2014 08:05:00 12.5 C 9.68 g/m*3 12.5 C 0 km/h
1169 24-06-2014 08:10:00 12.8 C 9.74 g/m*3 12.8 C 0 km/h
1170 24-06-2014 08:15:00 13.1 C 9.93 g/m*3 13.1 C 0 km/h
1171 24-06-2014 08:20:00 13.4 C 10 g/m*3 13.4 C 0 km/h
1172 24-06-2014 08:25:00 13.8 C 10.01 g/m*3 13.8 C 0 km/h
1173 24-06-2014 08:30:00 14.1 C 10.07 g/m*3 14.1 C 1.6 km/h
1174 24-06-2014 08:35:00 14.4 C 9.89 g/m*3 14.4 C 4.8 km/h
1175 24-06-2014 08:40:00 14.8 C 9.88 g/m*3 14.8 C 3.2 km/h
Sensor: Nr:Datum:Temp:Abs-Feuchte:Windchill:Wind:
Aussen-T/F 1176 24-06-2014 08:45:00 15.1 C 9.93 g/m*3 15.1 C 1.6 km/h
1177 24-06-2014 08:50:00 15.4 C 9.99 g/m*3 15.4 C 0 km/h
1178 24-06-2014 08:55:00 15.8 C 10.23 g/m*3 15.8 C 1.6 km/h
1179 24-06-2014 09:00:00 16.1 C 10.42 g/m*3 16.1 C 0 km/h
1180 24-06-2014 09:05:00 16.3 C 10.54 g/m*3 16.3 C 0 km/h
1181 24-06-2014 09:10:00 16.6 C 10.59 g/m*3 16.6 C 0 km/h
1182 24-06-2014 09:15:00 16.7 C 10.37 g/m*3 16.7 C 0 km/h
1183 24-06-2014 09:20:00 16.6 C 10.45 g/m*3 16.6 C 0 km/h
1184 24-06-2014 09:25:00 16.4 C 10.47 g/m*3 16.4 C 0 km/h
1185 24-06-2014 09:30:00 16.3 C 10.54 g/m*3 16.3 C 1.6 km/h
1186 24-06-2014 09:35:00 16.6 C 10.59 g/m*3 16.6 C 3.2 km/h
1187 24-06-2014 09:40:00 16.9 C 10.5 g/m*3 16.9 C 1.6 km/h
1188 24-06-2014 09:45:00 17.3 C 10.75 g/m*3 17.3 C 3.2 km/h
1189 24-06-2014 09:50:00 17.6 C 10.8 g/m*3 17.6 C 3.2 km/h
1190 24-06-2014 09:55:00 17.9 C 10.69 g/m*3 17.9 C 1.6 km/h
1191 24-06-2014 10:00:00 18.2 C 11.04 g/m*3 18.2 C 1.6 km/h
1192 24-06-2014 10:05:00 18.6 C 10.66 g/m*3 18.6 C 1.6 km/h
1193 24-06-2014 10:10:00 19 C 11.24 g/m*3 19 C 3.2 km/h
1194 24-06-2014 10:15:00 19.6 C 10.97 g/m*3 19.6 C 4.8 km/h
1195 24-06-2014 10:20:00 19.9 C 10.31 g/m*3 19.9 C 3.2 km/h
1196 24-06-2014 10:25:00 20.1 C 10.26 g/m*3 20.1 C 3.2 km/h
1197 24-06-2014 10:30:00 20.3 C 10.55 g/m*3 20.3 C 3.2 km/h
1198 24-06-2014 10:35:00 20.6 C 10.56 g/m*3 20.6 C 4.8 km/h
1199 24-06-2014 10:40:00 20.7 C 10.44 g/m*3 20.7 C 3.2 km/h
1200 24-06-2014 10:45:00 20.8 C 10.86 g/m*3 20.8 C 4.8 km/h
Sensor: Nr:Datum:Temp:Abs-Feuchte:Windchill:Wind:
Aussen-T/F 1201 24-06-2014 10:50:00 20.8 C 10.14 g/m*3 20.8 C 6.4 km/h
1202 24-06-2014 10:55:00 20.9 C 10.2 g/m*3 20.9 C 6.4 km/h
1203 24-06-2014 11:00:00 21 C 9.89 g/m*3 21 C 6.4 km/h
1204 24-06-2014 11:05:00 21 C 9.71 g/m*3 21 C 4.8 km/h
1205 24-06-2014 11:10:00 21.1 C 9.95 g/m*3 21.1 C 6.4 km/h
1206 24-06-2014 11:15:00 21.3 C 10.07 g/m*3 21.3 C 4.8 km/h
1207 24-06-2014 11:20:00 21.4 C 9.75 g/m*3 21.4 C 8.1 km/h
1208 24-06-2014 11:25:00 21.4 C 9.94 g/m*3 21.4 C 6.4 km/h
1209 24-06-2014 11:30:00 21.6 C 9.48 g/m*3 21.6 C 4.8 km/h
1210 24-06-2014 11:35:00 21.8 C 9.78 g/m*3 21.8 C 4.8 km/h
1211 24-06-2014 11:40:00 21.7 C 8.58 g/m*3 21.7 C 4.8 km/h
1212 24-06-2014 11:45:00 21.8 C 9.4 g/m*3 21.8 C 3.2 km/h
1213 24-06-2014 11:50:00 21.8 C 9.4 g/m*3 21.8 C 4.8 km/h
1214 24-06-2014 11:55:00 21.8 C 9.59 g/m*3 21.8 C 1.6 km/h
1215 24-06-2014 12:00:00 22.1 C 9.56 g/m*3 22.1 C 4.8 km/h
1216 24-06-2014 12:05:00 22.3 C 9.48 g/m*3 22.3 C 8.1 km/h
1217 24-06-2014 12:10:00 22.5 C 9.39 g/m*3 22.5 C 8.1 km/h
1218 24-06-2014 12:15:00 22.8 C 9.55 g/m*3 22.8 C 9.7 km/h
1219 24-06-2014 12:20:00 23 C 9.25 g/m*3 23 C 6.4 km/h
1220 24-06-2014 12:25:00 23.1 C 9.3 g/m*3 23.1 C 3.2 km/h
1221 24-06-2014 12:30:00 23.2 C 9.15 g/m*3 23.2 C 6.4 km/h
1222 24-06-2014 12:35:00 23.4 C 9.67 g/m*3 23.4 C 8.1 km/h
1223 24-06-2014 12:40:00 23.3 C 9.2 g/m*3 23.3 C 6.4 km/h
1224 24-06-2014 12:45:00 23.6 C 9.57 g/m*3 23.6 C 6.4 km/h
1225 24-06-2014 12:50:00 23.9 C 9.74 g/m*3 23.9 C 11.3 km/h
Sensor: Nr:Datum:Temp:Abs-Feuchte:Windchill:Wind:
Aussen-T/F 1226 24-06-2014 12:55:00 23.7 C 9.2 g/m*3 23.7 C 11.3 km/h
1227 24-06-2014 13:00:00 23.4 C 9.46 g/m*3 23.4 C 3.2 km/h
1228 24-06-2014 13:05:00 23.4 C 9.25 g/m*3 23.4 C 4.8 km/h
1229 24-06-2014 13:10:00 23.4 C 9.46 g/m*3 23.4 C 11.3 km/h
1230 24-06-2014 13:15:00 23.4 C 9.04 g/m*3 23.4 C 6.4 km/h
1231 24-06-2014 13:20:00 23.3 C 8.99 g/m*3 23.3 C 6.4 km/h
1232 24-06-2014 13:25:00 23.2 C 8.73 g/m*3 23.2 C 3.2 km/h
1233 24-06-2014 13:30:00 23.3 C 9.62 g/m*3 23.3 C 6.4 km/h
1234 24-06-2014 13:35:00 23.3 C 9.2 g/m*3 23.3 C 6.4 km/h
1235 24-06-2014 13:40:00 23.1 C 8.89 g/m*3 23.1 C 1.6 km/h
1236 24-06-2014 13:45:00 22.9 C 8.99 g/m*3 22.9 C 9.7 km/h
1237 24-06-2014 13:50:00 22.7 C 8.89 g/m*3 22.7 C 6.4 km/h
1238 24-06-2014 13:55:00 22.6 C 9.04 g/m*3 22.6 C 6.4 km/h
1239 24-06-2014 14:00:00 22.6 C 8.84 g/m*3 22.6 C 6.4 km/h
1240 24-06-2014 14:05:00 22.8 C 9.14 g/m*3 22.8 C 8.1 km/h
1241 24-06-2014 14:10:00 22.9 C 9.4 g/m*3 22.9 C 4.8 km/h
1242 24-06-2014 14:15:00 23.1 C 9.3 g/m*3 23.1 C 4.8 km/h
1243 24-06-2014 14:20:00 23.1 C 8.89 g/m*3 23.1 C 3.2 km/h
1244 24-06-2014 14:25:00 23 C 9.04 g/m*3 23 C 8.1 km/h
1245 24-06-2014 14:30:00 23.1 C 9.3 g/m*3 23.1 C 1.6 km/h
1246 24-06-2014 14:35:00 23.2 C 9.36 g/m*3 23.2 C 4.8 km/h
1247 24-06-2014 14:40:00 23.4 C 9.46 g/m*3 23.4 C 8.1 km/h
1248 24-06-2014 14:45:00 23.3 C 8.99 g/m*3 23.3 C 8.1 km/h
1249 24-06-2014 14:50:00 23.3 C 9.62 g/m*3 23.3 C 6.4 km/h
1250 24-06-2014 14:55:00 23.3 C 9.2 g/m*3 23.3 C 4.8 km/h
Sensor: Nr:Datum:Temp:Abs-Feuchte:Windchill:Wind:
Aussen-T/F 1251 24-06-2014 15:00:00 23.4 C 9.25 g/m*3 23.4 C 8.1 km/h
1252 24-06-2014 15:05:00 23.4 C 9.04 g/m*3 23.4 C 6.4 km/h
1253 24-06-2014 15:10:00 23.2 C 9.15 g/m*3 23.2 C 3.2 km/h
1254 24-06-2014 15:15:00 23.1 C 9.3 g/m*3 23.1 C 3.2 km/h
1255 24-06-2014 15:20:00 23.3 C 10.04 g/m*3 23.3 C 3.2 km/h
1256 24-06-2014 15:25:00 23.8 C 9.68 g/m*3 23.8 C 3.2 km/h
1257 24-06-2014 15:30:00 24 C 9.57 g/m*3 24 C 6.4 km/h
1258 24-06-2014 15:35:00 24 C 9.57 g/m*3 24 C 9.7 km/h
1259 24-06-2014 15:40:00 24.2 C 9.68 g/m*3 24.2 C 8.1 km/h
1260 24-06-2014 15:45:00 24.3 C 9.96 g/m*3 24.3 C 6.4 km/h
1261 24-06-2014 15:50:00 24.5 C 9.4 g/m*3 24.5 C 3.2 km/h
1262 24-06-2014 15:55:00 24.4 C 9.12 g/m*3 24.4 C 6.4 km/h
1263 24-06-2014 16:00:00 23.9 C 9.74 g/m*3 23.9 C 1.6 km/h
1264 24-06-2014 16:05:00 23.6 C 9.36 g/m*3 23.6 C 0 km/h
1265 24-06-2014 16:10:00 23.4 C 10.93 g/m*3 23.4 C 0 km/h
1266 24-06-2014 16:15:00 23 C 10.28 g/m*3 23 C 0 km/h
1267 24-06-2014 16:20:00 22.7 C 10.71 g/m*3 22.7 C 0 km/h
1268 24-06-2014 16:25:00 22.6 C 9.04 g/m*3 22.6 C 3.2 km/h
1269 24-06-2014 16:30:00 22.6 C 9.04 g/m*3 22.6 C 3.2 km/h
1270 24-06-2014 16:35:00 22.7 C 9.09 g/m*3 22.7 C 6.4 km/h
1271 24-06-2014 16:40:00 22.8 C 9.35 g/m*3 22.8 C 4.8 km/h
1272 24-06-2014 16:45:00 22.8 C 9.14 g/m*3 22.8 C 9.7 km/h
1273 24-06-2014 16:50:00 22.7 C 9.09 g/m*3 22.7 C 9.7 km/h
1274 24-06-2014 16:55:00 22.4 C 10.13 g/m*3 22.4 C 29 km/h
1275 24-06-2014 17:00:00 20.9 C 12.2 g/m*3 20.9 C 29 km/h
Sensor: Nr:Datum:Temp:Abs-Feuchte:Windchill:Wind:
Aussen-T/F 1276 24-06-2014 17:05:00 20.8 C 12.31 g/m*3 20.8 C 14.5 km/h
1277 24-06-2014 17:10:00 18.7 C 12.01 g/m*3 18.7 C 8.1 km/h
1278 24-06-2014 17:15:00 17.9 C 12.37 g/m*3 17.9 C 4.8 km/h
1279 24-06-2014 17:20:00 17.4 C 12.6 g/m*3 17.4 C 3.2 km/h
1280 24-06-2014 17:25:00 17.2 C 12.74 g/m*3 17.2 C 1.6 km/h
1281 24-06-2014 17:30:00 17.1 C 12.81 g/m*3 17.1 C 1.6 km/h
1282 24-06-2014 17:35:00 17 C 12.88 g/m*3 17 C 0 km/h
1283 24-06-2014 17:40:00 17 C 13.17 g/m*3 17 C 0 km/h
1284 24-06-2014 17:45:00 16.9 C 12.94 g/m*3 16.9 C 0 km/h
1285 24-06-2014 17:50:00 16.8 C 12.87 g/m*3 16.8 C 1.6 km/h
1286 24-06-2014 17:55:00 16.9 C 12.66 g/m*3 16.9 C 12.9 km/h
1287 24-06-2014 18:00:00 17.3 C 12.08 g/m*3 17.3 C 11.3 km/h
1288 24-06-2014 18:05:00 17.4 C 12.3 g/m*3 17.4 C 4.8 km/h
1289 24-06-2014 18:10:00 17.2 C 12.15 g/m*3 17.2 C 3.2 km/h
1290 24-06-2014 18:15:00 16.8 C 12.44 g/m*3 16.8 C 3.2 km/h
1291 24-06-2014 18:20:00 16.6 C 12.43 g/m*3 16.6 C 0 km/h
1292 24-06-2014 18:25:00 16.3 C 12.35 g/m*3 16.3 C 0 km/h
1293 24-06-2014 18:30:00 16 C 12.26 g/m*3 16 C 0 km/h
1294 24-06-2014 18:35:00 16 C 12.26 g/m*3 16 C 0 km/h
1295 24-06-2014 19:00:00 15.2 C 12.2 g/m*3 15.2 C 1.6 km/h
1296 24-06-2014 19:05:00 15.2 C 12.2 g/m*3 15.2 C 1.6 km/h
1297 24-06-2014 22:20:00 13.5 C 11.7 g/m*3 13.5 C 0 km/h
1298 24-06-2014 22:25:00 13.5 C 11.7 g/m*3 13.5 C 1.6 km/h
1299 24-06-2014 22:30:00 13.5 C 11.7 g/m*3 13.5 C 0 km/h
1300 24-06-2014 22:35:00 13.5 C 11.7 g/m*3 13.5 C 0 km/h
Sensor: Nr:Datum:Temp:Abs-Feuchte:Windchill:Wind:
Aussen-T/F 1301 24-06-2014 22:40:00 13.5 C 11.7 g/m*3 13.5 C 0 km/h
1302 25-06-2014 08:20:00 14.1 C 12.14 g/m*3 14.1 C 9.7 km/h
1303 25-06-2014 08:25:00 14.2 C 12.21 g/m*3 14.2 C 9.7 km/h
1304 25-06-2014 08:30:00 14.3 C 12.29 g/m*3 14.3 C 11.3 km/h
1305 25-06-2014 08:35:00 14.3 C 12.29 g/m*3 14.3 C 14.5 km/h
1306 25-06-2014 08:40:00 14.2 C 9.65 g/m*3 14.2 C 12.9 km/h
1307 25-06-2014 08:45:00 14.2 C 9.52 g/m*3 14.2 C 17.7 km/h
1308 25-06-2014 08:50:00 14.2 C 9.52 g/m*3 14.2 C 11.3 km/h
1309 25-06-2014 08:55:00 14.1 C 9.59 g/m*3 14.1 C 8.1 km/h
1310 25-06-2014 09:00:00 13.9 C 9.35 g/m*3 13.9 C 12.9 km/h
1311 25-06-2014 09:05:00 13.8 C 9.65 g/m*3 13.8 C 4.8 km/h
1312 25-06-2014 09:10:00 14.1 C 9.71 g/m*3 14.1 C 6.4 km/h
1313 25-06-2014 09:15:00 14.5 C 9.58 g/m*3 14.5 C 16.1 km/h
1314 25-06-2014 09:20:00 14.7 C 9.32 g/m*3 14.7 C 17.7 km/h
1315 25-06-2014 09:25:00 14.8 C 9.37 g/m*3 14.8 C 14.5 km/h
1316 25-06-2014 09:30:00 14.9 C 9.3 g/m*3 14.9 C 17.7 km/h
1317 25-06-2014 09:35:00 15 C 9.1 g/m*3 15 C 12.9 km/h
1318 25-06-2014 09:40:00 15.1 C 9.16 g/m*3 15.1 C 9.7 km/h
1319 25-06-2014 09:45:00 15.2 C 9.35 g/m*3 15.2 C 9.7 km/h
1320 25-06-2014 09:50:00 15.4 C 9.07 g/m*3 15.4 C 16.1 km/h
1321 25-06-2014 09:55:00 15.6 C 8.91 g/m*3 15.6 C 11.3 km/h
1322 25-06-2014 10:00:00 15.6 C 8.91 g/m*3 15.6 C 14.5 km/h
1323 25-06-2014 10:05:00 15.3 C 8.75 g/m*3 15.3 C 14.5 km/h
1324 25-06-2014 10:10:00 15.2 C 8.7 g/m*3 15.2 C 12.9 km/h
1325 25-06-2014 10:15:00 15.2 C 8.7 g/m*3 15.2 C 19.3 km/h
Sensor: Nr:Datum:Temp:Abs-Feuchte:Windchill:Wind:
Aussen-T/F 1326 25-06-2014 10:20:00 15.2 C 8.44 g/m*3 15.2 C 17.7 km/h
1327 25-06-2014 10:25:00 15.3 C 8.62 g/m*3 15.3 C 9.7 km/h
1328 25-06-2014 10:30:00 15.7 C 8.7 g/m*3 15.7 C 14.5 km/h
1329 25-06-2014 10:35:00 15.8 C 8.48 g/m*3 15.8 C 16.1 km/h
1330 25-06-2014 10:40:00 15.7 C 8.56 g/m*3 15.7 C 9.7 km/h
1331 25-06-2014 10:45:00 16 C 8.45 g/m*3 16 C 16.1 km/h
1332 25-06-2014 10:50:00 16.1 C 8.09 g/m*3 16.1 C 19.3 km/h
1333 25-06-2014 10:55:00 16.3 C 7.63 g/m*3 16.3 C 11.3 km/h
1334 25-06-2014 11:00:00 16.8 C 8.01 g/m*3 16.8 C 12.9 km/h
1335 25-06-2014 11:05:00 17.3 C 8.84 g/m*3 17.3 C 16.1 km/h
1336 25-06-2014 11:10:00 17.3 C 8.1 g/m*3 17.3 C 14.5 km/h
1337 25-06-2014 11:15:00 16.8 C 8.01 g/m*3 16.8 C 12.9 km/h
1338 25-06-2014 11:20:00 16.4 C 7.82 g/m*3 16.4 C 20.9 km/h
1339 25-06-2014 11:25:00 16.1 C 8.22 g/m*3 16.1 C 12.9 km/h
1340 25-06-2014 11:30:00 16.3 C 7.91 g/m*3 16.3 C 12.9 km/h
1341 25-06-2014 11:35:00 16.9 C 8.49 g/m*3 16.9 C 11.3 km/h
1342 25-06-2014 11:40:00 17.4 C 8.45 g/m*3 17.4 C 16.1 km/h
1343 25-06-2014 11:45:00 17.7 C 8.15 g/m*3 17.7 C 11.3 km/h
1344 25-06-2014 11:50:00 17.7 C 8.15 g/m*3 17.7 C 12.9 km/h
1345 25-06-2014 11:55:00 17.9 C 8.24 g/m*3 17.9 C 12.9 km/h
1346 25-06-2014 12:00:00 18.1 C 8.19 g/m*3 18.1 C 11.3 km/h
1347 25-06-2014 12:05:00 17.9 C 7.63 g/m*3 17.9 C 17.7 km/h
1348 25-06-2014 12:10:00 17.6 C 7.65 g/m*3 17.6 C 16.1 km/h
1349 25-06-2014 12:15:00 17.8 C 7.59 g/m*3 17.8 C 12.9 km/h
1350 25-06-2014 12:20:00 18.2 C 7.77 g/m*3 18.2 C 16.1 km/h
Sensor: Nr:Datum:Temp:Abs-Feuchte:Windchill:Wind:
Aussen-T/F 1351 25-06-2014 12:25:00 18.4 C 7.71 g/m*3 18.4 C 16.1 km/h
1352 25-06-2014 12:30:00 18.3 C 7.97 g/m*3 18.3 C 17.7 km/h
1353 25-06-2014 12:35:00 17.7 C 7.69 g/m*3 17.7 C 16.1 km/h
1354 25-06-2014 12:40:00 17.4 C 7.71 g/m*3 17.4 C 14.5 km/h
1355 25-06-2014 12:45:00 17.3 C 7.81 g/m*3 17.3 C 14.5 km/h
1356 25-06-2014 12:50:00 17.3 C 7.96 g/m*3 17.3 C 12.9 km/h
1357 25-06-2014 12:55:00 17.4 C 7.56 g/m*3 17.4 C 12.9 km/h
1358 25-06-2014 13:00:00 17.4 C 7.85 g/m*3 17.4 C 9.7 km/h
1359 25-06-2014 13:05:00 17.7 C 8 g/m*3 17.7 C 8.1 km/h
1360 25-06-2014 13:10:00 18.1 C 8.03 g/m*3 18.1 C 14.5 km/h
1361 25-06-2014 13:15:00 18.1 C 7.88 g/m*3 18.1 C 11.3 km/h
1362 25-06-2014 13:20:00 18 C 7.83 g/m*3 18 C 12.9 km/h
1363 25-06-2014 13:25:00 17.9 C 7.79 g/m*3 17.9 C 11.3 km/h
1364 25-06-2014 13:30:00 17.8 C 7.89 g/m*3 17.8 C 9.7 km/h
1365 25-06-2014 13:35:00 17.9 C 7.63 g/m*3 17.9 C 12.9 km/h
1366 25-06-2014 13:40:00 17.8 C 7.74 g/m*3 17.8 C 11.3 km/h
1367 25-06-2014 13:45:00 17.6 C 7.5 g/m*3 17.6 C 6.4 km/h
1368 25-06-2014 13:50:00 17.9 C 8.24 g/m*3 17.9 C 11.3 km/h
1369 25-06-2014 13:55:00 18.2 C 7.93 g/m*3 18.2 C 6.4 km/h
1370 25-06-2014 14:00:00 18.3 C 7.51 g/m*3 18.3 C 12.9 km/h
1371 25-06-2014 14:05:00 18.3 C 7.82 g/m*3 18.3 C 9.7 km/h
1372 25-06-2014 14:10:00 18.2 C 7.77 g/m*3 18.2 C 17.7 km/h
1373 25-06-2014 14:15:00 17.8 C 7.89 g/m*3 17.8 C 11.3 km/h
1374 25-06-2014 14:20:00 17.9 C 8.24 g/m*3 17.9 C 12.9 km/h
1375 25-06-2014 14:25:00 18.7 C 7.68 g/m*3 18.7 C 16.1 km/h
Sensor: Nr:Datum:Temp:Abs-Feuchte:Windchill:Wind:
Aussen-T/F 1376 25-06-2014 14:30:00 18.8 C 7.89 g/m*3 18.8 C 17.7 km/h
1377 25-06-2014 14:35:00 18.9 C 8.1 g/m*3 18.9 C 14.5 km/h
1378 25-06-2014 14:40:00 18.9 C 7.78 g/m*3 18.9 C 12.9 km/h
1379 25-06-2014 14:45:00 18.9 C 7.78 g/m*3 18.9 C 9.7 km/h
1380 25-06-2014 14:50:00 18.7 C 7.68 g/m*3 18.7 C 9.7 km/h
1381 25-06-2014 14:55:00 18.4 C 7.86 g/m*3 18.4 C 11.3 km/h
1382 25-06-2014 15:00:00 18.2 C 7.62 g/m*3 18.2 C 9.7 km/h
1383 25-06-2014 15:05:00 17.9 C 7.63 g/m*3 17.9 C 9.7 km/h
1384 25-06-2014 15:10:00 17.8 C 7.74 g/m*3 17.8 C 9.7 km/h
1385 25-06-2014 15:15:00 17.8 C 7.74 g/m*3 17.8 C 9.7 km/h
1386 25-06-2014 15:20:00 17.9 C 7.94 g/m*3 17.9 C 9.7 km/h
1387 25-06-2014 15:25:00 18.2 C 7.93 g/m*3 18.2 C 11.3 km/h
1388 25-06-2014 15:30:00 18.6 C 7.96 g/m*3 18.6 C 8.1 km/h
1389 25-06-2014 15:35:00 18.8 C 8.05 g/m*3 18.8 C 14.5 km/h
1390 25-06-2014 15:40:00 19.3 C 7.96 g/m*3 19.3 C 19.3 km/h
1391 25-06-2014 15:45:00 19.1 C 7.7 g/m*3 19.1 C 16.1 km/h
1392 25-06-2014 15:50:00 18.8 C 7.57 g/m*3 18.8 C 9.7 km/h
1393 25-06-2014 15:55:00 18.6 C 7.48 g/m*3 18.6 C 9.7 km/h
1394 25-06-2014 16:00:00 18.7 C 7.84 g/m*3 18.7 C 11.3 km/h
1395 25-06-2014 16:05:00 19.3 C 7.46 g/m*3 19.3 C 8.1 km/h
1396 25-06-2014 16:10:00 20.1 C 7.82 g/m*3 20.1 C 12.9 km/h
1397 25-06-2014 16:15:00 20.5 C 7.47 g/m*3 20.5 C 6.4 km/h
1398 25-06-2014 16:20:00 20.1 C 7.13 g/m*3 20.1 C 11.3 km/h
1399 25-06-2014 16:25:00 19.8 C 7.34 g/m*3 19.8 C 6.4 km/h
1400 25-06-2014 16:30:00 19.5 C 7.38 g/m*3 19.5 C 9.7 km/h
Sensor: Nr:Datum:Temp:Abs-Feuchte:Windchill:Wind:
Aussen-T/F 1401 25-06-2014 16:35:00 19.3 C 7.46 g/m*3 19.3 C 11.3 km/h
1402 25-06-2014 16:40:00 19.8 C 7.52 g/m*3 19.8 C 8.1 km/h
1403 25-06-2014 16:45:00 20.2 C 7.34 g/m*3 20.2 C 11.3 km/h
1404 25-06-2014 16:50:00 20 C 7.09 g/m*3 20 C 8.1 km/h
1405 25-06-2014 16:55:00 19.6 C 7.26 g/m*3 19.6 C 9.7 km/h
1406 25-06-2014 17:00:00 19.2 C 7.42 g/m*3 19.2 C 11.3 km/h
1407 25-06-2014 17:05:00 18.9 C 7.13 g/m*3 18.9 C 12.9 km/h
1408 25-06-2014 17:10:00 19.1 C 7.54 g/m*3 19.1 C 9.7 km/h
1409 25-06-2014 17:15:00 19.7 C 7.3 g/m*3 19.7 C 11.3 km/h
1410 25-06-2014 17:20:00 20.1 C 7.3 g/m*3 20.1 C 12.9 km/h
1411 25-06-2014 17:25:00 19.8 C 7.34 g/m*3 19.8 C 11.3 km/h
1412 25-06-2014 17:30:00 19.7 C 7.81 g/m*3 19.7 C 9.7 km/h
1413 25-06-2014 17:35:00 20.3 C 7.56 g/m*3 20.3 C 14.5 km/h
1414 25-06-2014 17:40:00 20.2 C 7.34 g/m*3 20.2 C 8.1 km/h
1415 25-06-2014 17:45:00 19.7 C 7.47 g/m*3 19.7 C 11.3 km/h
1416 25-06-2014 17:50:00 19.5 C 7.89 g/m*3 19.5 C 6.4 km/h
1417 25-06-2014 17:55:00 19.8 C 7.34 g/m*3 19.8 C 4.8 km/h
1418 25-06-2014 18:00:00 20.1 C 7.3 g/m*3 20.1 C 4.8 km/h
1419 25-06-2014 18:05:00 20.2 C 7.69 g/m*3 20.2 C 6.4 km/h
1420 25-06-2014 18:10:00 20.6 C 7.52 g/m*3 20.6 C 9.7 km/h
1421 25-06-2014 18:15:00 20.7 C 7.92 g/m*3 20.7 C 12.9 km/h
1422 25-06-2014 18:20:00 20.9 C 7.65 g/m*3 20.9 C 8.1 km/h
1423 25-06-2014 18:25:00 20.8 C 7.79 g/m*3 20.8 C 8.1 km/h
1424 25-06-2014 18:30:00 21.1 C 7.19 g/m*3 21.1 C 11.3 km/h
1425 25-06-2014 18:35:00 20.9 C 7.47 g/m*3 20.9 C 9.7 km/h
Sensor: Nr:Datum:Temp:Abs-Feuchte:Windchill:Wind:
Aussen-T/F 1426 25-06-2014 18:40:00 20.7 C 7.56 g/m*3 20.7 C 11.3 km/h
1427 25-06-2014 18:45:00 20.8 C 7.6 g/m*3 20.8 C 9.7 km/h
1428 25-06-2014 18:50:00 21.1 C 7.37 g/m*3 21.1 C 11.3 km/h
1429 25-06-2014 18:55:00 21.1 C 7.92 g/m*3 21.1 C 12.9 km/h
1430 25-06-2014 19:00:00 21 C 7.69 g/m*3 21 C 11.3 km/h
1431 25-06-2014 19:05:00 20.8 C 7.42 g/m*3 20.8 C 9.7 km/h
1432 25-06-2014 19:10:00 20.4 C 7.43 g/m*3 20.4 C 11.3 km/h
1433 25-06-2014 19:15:00 20.1 C 7.65 g/m*3 20.1 C 9.7 km/h
1434 25-06-2014 19:20:00 20 C 7.6 g/m*3 20 C 9.7 km/h
1435 25-06-2014 19:25:00 19.7 C 7.64 g/m*3 19.7 C 9.7 km/h
1436 25-06-2014 19:30:00 19.4 C 7.51 g/m*3 19.4 C 11.3 km/h
1437 25-06-2014 19:35:00 19.1 C 7.54 g/m*3 19.1 C 9.7 km/h
1438 25-06-2014 19:40:00 19.1 C 7.54 g/m*3 19.1 C 9.7 km/h
1439 25-06-2014 19:45:00 19.2 C 7.59 g/m*3 19.2 C 9.7 km/h
1440 25-06-2014 19:50:00 19.3 C 7.63 g/m*3 19.3 C 8.1 km/h
1441 25-06-2014 19:55:00 19.3 C 7.63 g/m*3 19.3 C 9.7 km/h
1442 25-06-2014 20:00:00 19.3 C 7.8 g/m*3 19.3 C 11.3 km/h
1443 25-06-2014 20:05:00 19.2 C 7.91 g/m*3 19.2 C 9.7 km/h
1444 25-06-2014 20:10:00 19 C 7.66 g/m*3 19 C 11.3 km/h
1445 25-06-2014 20:15:00 18.8 C 7.89 g/m*3 18.8 C 9.7 km/h
1446 25-06-2014 20:20:00 18.8 C 7.73 g/m*3 18.8 C 6.4 km/h
1447 25-06-2014 20:25:00 18.9 C 7.94 g/m*3 18.9 C 9.7 km/h
1448 25-06-2014 20:30:00 18.8 C 7.89 g/m*3 18.8 C 8.1 km/h
1449 25-06-2014 20:35:00 18.7 C 8.01 g/m*3 18.7 C 8.1 km/h
1450 25-06-2014 20:40:00 18.6 C 7.96 g/m*3 18.6 C 11.3 km/h
Sensor: Nr:Datum:Temp:Abs-Feuchte:Windchill:Wind:
Aussen-T/F 1451 25-06-2014 20:45:00 18.4 C 7.86 g/m*3 18.4 C 8.1 km/h
1452 25-06-2014 20:50:00 18.3 C 7.97 g/m*3 18.3 C 14.5 km/h
1453 25-06-2014 20:55:00 18.1 C 7.88 g/m*3 18.1 C 8.1 km/h
1454 25-06-2014 21:00:00 17.8 C 7.89 g/m*3 17.8 C 8.1 km/h
1455 25-06-2014 21:05:00 17.7 C 8 g/m*3 17.7 C 8.1 km/h
1456 25-06-2014 21:10:00 17.6 C 8.1 g/m*3 17.6 C 3.2 km/h
1457 25-06-2014 21:15:00 17.5 C 8.05 g/m*3 17.5 C 3.2 km/h
1458 25-06-2014 21:20:00 17.3 C 8.1 g/m*3 17.3 C 4.8 km/h
1459 25-06-2014 21:25:00 17 C 8.39 g/m*3 17 C 0 km/h
1460 25-06-2014 21:30:00 16.5 C 8.43 g/m*3 16.5 C 0 km/h
1461 25-06-2014 21:35:00 15.9 C 8.26 g/m*3 15.9 C 0 km/h
1462 25-06-2014 21:40:00 15.5 C 8.33 g/m*3 15.5 C 0 km/h
1463 25-06-2014 21:45:00 15.2 C 8.31 g/m*3 15.2 C 0 km/h
1464 25-06-2014 21:50:00 14.9 C 8.41 g/m*3 14.9 C 0 km/h
1465 25-06-2014 21:55:00 14.7 C 8.44 g/m*3 14.7 C 0 km/h
1466 25-06-2014 22:00:00 14.5 C 8.46 g/m*3 14.5 C 0 km/h
1467 25-06-2014 22:05:00 14.3 C 8.48 g/m*3 14.3 C 0 km/h
1468 25-06-2014 22:10:00 14.2 C 8.67 g/m*3 14.2 C 0 km/h
1469 25-06-2014 22:15:00 14 C 8.56 g/m*3 14 C 0 km/h
1470 25-06-2014 22:20:00 13.8 C 8.58 g/m*3 13.8 C 0 km/h
1471 25-06-2014 22:25:00 13.7 C 8.53 g/m*3 13.7 C 0 km/h
1472 25-06-2014 22:30:00 13.6 C 8.47 g/m*3 13.6 C 0 km/h
1473 25-06-2014 22:35:00 13.5 C 8.54 g/m*3 13.5 C 0 km/h
1474 25-06-2014 22:40:00 13.4 C 8.49 g/m*3 13.4 C 0 km/h
1475 25-06-2014 22:45:00 13.3 C 8.43 g/m*3 13.3 C 0 km/h
Sensor: Nr:Datum:Temp:Abs-Feuchte:Windchill:Wind:
Aussen-T/F 1476 25-06-2014 22:50:00 13.2 C 8.5 g/m*3 13.2 C 0 km/h
1477 25-06-2014 22:55:00 13.2 C 8.5 g/m*3 13.2 C 0 km/h
1478 25-06-2014 23:00:00 13.1 C 8.44 g/m*3 13.1 C 0 km/h
1479 25-06-2014 23:05:00 13.1 C 8.44 g/m*3 13.1 C 0 km/h
1480 25-06-2014 23:10:00 13 C 8.39 g/m*3 13 C 0 km/h
1481 25-06-2014 23:15:00 12.9 C 8.45 g/m*3 12.9 C 0 km/h
1482 25-06-2014 23:20:00 12.9 C 8.45 g/m*3 12.9 C 0 km/h
1483 25-06-2014 23:25:00 12.7 C 8.35 g/m*3 12.7 C 0 km/h
1484 25-06-2014 23:30:00 12.7 C 8.46 g/m*3 12.7 C 0 km/h
1485 25-06-2014 23:35:00 12.5 C 8.47 g/m*3 12.5 C 0 km/h
1486 25-06-2014 23:40:00 12.3 C 8.47 g/m*3 12.3 C 0 km/h
1487 25-06-2014 23:45:00 12.1 C 8.47 g/m*3 12.1 C 0 km/h
1488 25-06-2014 23:50:00 11.9 C 8.37 g/m*3 11.9 C 0 km/h
1489 25-06-2014 23:55:00 11.8 C 8.31 g/m*3 11.8 C 0 km/h
1490 26-06-2014 00:00:00 11.7 C 8.26 g/m*3 11.7 C 0 km/h
1491 26-06-2014 00:05:00 11.6 C 8.32 g/m*3 11.6 C 0 km/h
1492 26-06-2014 00:10:00 11.5 C 8.26 g/m*3 11.5 C 0 km/h
1493 26-06-2014 00:15:00 11.4 C 8.21 g/m*3 11.4 C 0 km/h
1494 26-06-2014 00:20:00 11.2 C 8.21 g/m*3 11.2 C 0 km/h
1495 26-06-2014 00:25:00 11.2 C 8.21 g/m*3 11.2 C 0 km/h
1496 26-06-2014 00:30:00 11.1 C 8.26 g/m*3 11.1 C 0 km/h
1497 26-06-2014 00:35:00 11 C 8.21 g/m*3 11 C 0 km/h
1498 26-06-2014 00:40:00 10.9 C 8.16 g/m*3 10.9 C 0 km/h
1499 26-06-2014 00:45:00 10.9 C 8.16 g/m*3 10.9 C 0 km/h
1500 26-06-2014 00:50:00 10.8 C 8.2 g/m*3 10.8 C 0 km/h
Sensor: Nr:Datum:Temp:Abs-Feuchte:Windchill:Wind:
Aussen-T/F 1501 26-06-2014 00:55:00 10.7 C 8.15 g/m*3 10.7 C 0 km/h
1502 26-06-2014 01:00:00 10.6 C 8.2 g/m*3 10.6 C 0 km/h
1503 26-06-2014 01:05:00 10.5 C 8.15 g/m*3 10.5 C 0 km/h
1504 26-06-2014 01:10:00 10.5 C 8.15 g/m*3 10.5 C 0 km/h
1505 26-06-2014 01:15:00 10.4 C 8.1 g/m*3 10.4 C 0 km/h
1506 26-06-2014 01:20:00 10.4 C 8.1 g/m*3 10.4 C 0 km/h
1507 26-06-2014 01:25:00 10.3 C 8.14 g/m*3 10.3 C 0 km/h
1508 26-06-2014 01:30:00 10.3 C 8.14 g/m*3 10.3 C 0 km/h
1509 26-06-2014 01:35:00 10.2 C 8.09 g/m*3 10.2 C 0 km/h
1510 26-06-2014 01:40:00 10.2 C 8.18 g/m*3 10.2 C 0 km/h
1511 26-06-2014 01:45:00 10.1 C 8.13 g/m*3 10.1 C 0 km/h
1512 26-06-2014 01:50:00 9.9 C 8.03 g/m*3 9.9 C 0 km/h
1513 26-06-2014 01:55:00 9.9 C 8.03 g/m*3 9.9 C 0 km/h
1514 26-06-2014 02:00:00 9.8 C 8.07 g/m*3 9.8 C 0 km/h
1515 26-06-2014 02:05:00 9.7 C 8.02 g/m*3 9.7 C 0 km/h
1516 26-06-2014 02:10:00 9.7 C 8.02 g/m*3 9.7 C 0 km/h
1517 26-06-2014 02:15:00 9.6 C 8.06 g/m*3 9.6 C 0 km/h
1518 26-06-2014 02:20:00 9.5 C 7.92 g/m*3 9.5 C 0 km/h
1519 26-06-2014 02:25:00 9.4 C 7.96 g/m*3 9.4 C 0 km/h
1520 26-06-2014 02:30:00 9.4 C 7.96 g/m*3 9.4 C 0 km/h
1521 26-06-2014 02:35:00 9.3 C 7.91 g/m*3 9.3 C 0 km/h
1522 26-06-2014 02:40:00 9.3 C 7.91 g/m*3 9.3 C 0 km/h
1523 26-06-2014 02:45:00 9.3 C 7.91 g/m*3 9.3 C 0 km/h
1524 26-06-2014 02:50:00 9.2 C 7.86 g/m*3 9.2 C 0 km/h
1525 26-06-2014 02:55:00 9.2 C 7.95 g/m*3 9.2 C 0 km/h
Sensor: Nr:Datum:Temp:Abs-Feuchte:Windchill:Wind:
Aussen-T/F 1526 26-06-2014 03:00:00 9.2 C 7.95 g/m*3 9.2 C 0 km/h
1527 26-06-2014 03:05:00 9.2 C 7.95 g/m*3 9.2 C 0 km/h
1528 26-06-2014 03:10:00 9.1 C 7.81 g/m*3 9.1 C 0 km/h
1529 26-06-2014 03:15:00 9 C 7.85 g/m*3 9 C 0 km/h
1530 26-06-2014 03:20:00 8.9 C 7.8 g/m*3 8.9 C 0 km/h
1531 26-06-2014 03:25:00 8.9 C 7.8 g/m*3 8.9 C 0 km/h
1532 26-06-2014 03:30:00 8.8 C 7.75 g/m*3 8.8 C 0 km/h
1533 26-06-2014 03:35:00 8.8 C 7.75 g/m*3 8.8 C 0 km/h
1534 26-06-2014 03:40:00 8.8 C 7.83 g/m*3 8.8 C 0 km/h
1535 26-06-2014 03:45:00 8.7 C 7.78 g/m*3 8.7 C 0 km/h
1536 26-06-2014 03:50:00 8.7 C 7.78 g/m*3 8.7 C 0 km/h
1537 26-06-2014 03:55:00 8.7 C 7.78 g/m*3 8.7 C 0 km/h
1538 26-06-2014 04:00:00 8.7 C 7.78 g/m*3 8.7 C 0 km/h
1539 26-06-2014 04:05:00 8.6 C 7.73 g/m*3 8.6 C 0 km/h
1540 26-06-2014 04:10:00 8.6 C 7.73 g/m*3 8.6 C 0 km/h
1541 26-06-2014 04:15:00 8.6 C 7.82 g/m*3 8.6 C 0 km/h
1542 26-06-2014 04:20:00 8.5 C 7.77 g/m*3 8.5 C 0 km/h
1543 26-06-2014 04:25:00 8.5 C 7.77 g/m*3 8.5 C 0 km/h
1544 26-06-2014 04:30:00 8.6 C 7.82 g/m*3 8.6 C 0 km/h
1545 26-06-2014 04:35:00 8.6 C 7.82 g/m*3 8.6 C 0 km/h
1546 26-06-2014 04:40:00 8.6 C 7.82 g/m*3 8.6 C 0 km/h
1547 26-06-2014 04:45:00 8.6 C 7.82 g/m*3 8.6 C 0 km/h
1548 26-06-2014 04:50:00 8.6 C 7.82 g/m*3 8.6 C 0 km/h
1549 26-06-2014 04:55:00 8.5 C 7.77 g/m*3 8.5 C 0 km/h
1550 26-06-2014 05:00:00 8.5 C 7.77 g/m*3 8.5 C 0 km/h
Sensor: Nr:Datum:Temp:Abs-Feuchte:Windchill:Wind:
Aussen-T/F 1551 26-06-2014 05:05:00 8.4 C 7.72 g/m*3 8.4 C 0 km/h
1552 26-06-2014 05:10:00 8.5 C 7.85 g/m*3 8.5 C 0 km/h
1553 26-06-2014 05:15:00 8.5 C 7.85 g/m*3 8.5 C 0 km/h
1554 26-06-2014 05:20:00 8.5 C 7.85 g/m*3 8.5 C 0 km/h
1555 26-06-2014 05:25:00 8.5 C 7.85 g/m*3 8.5 C 0 km/h
1556 26-06-2014 05:30:00 8.5 C 7.85 g/m*3 8.5 C 3.2 km/h
1557 26-06-2014 05:35:00 8.6 C 7.91 g/m*3 8.6 C 0 km/h
1558 26-06-2014 05:40:00 8.6 C 7.91 g/m*3 8.6 C 3.2 km/h
1559 26-06-2014 05:45:00 8.6 C 7.82 g/m*3 8.6 C 0 km/h
1560 26-06-2014 05:50:00 8.6 C 7.91 g/m*3 8.6 C 0 km/h
1561 26-06-2014 05:55:00 8.6 C 7.91 g/m*3 8.6 C 1.6 km/h
1562 26-06-2014 06:00:00 8.6 C 7.91 g/m*3 8.6 C 0 km/h
1563 26-06-2014 06:05:00 8.6 C 7.82 g/m*3 8.6 C 0 km/h
1564 26-06-2014 06:10:00 8.6 C 7.82 g/m*3 8.6 C 0 km/h
1565 26-06-2014 06:15:00 8.6 C 7.91 g/m*3 8.6 C 0 km/h
1566 26-06-2014 06:20:00 8.6 C 7.82 g/m*3 8.6 C 0 km/h
1567 26-06-2014 06:25:00 8.6 C 7.91 g/m*3 8.6 C 0 km/h
1568 26-06-2014 06:30:00 8.6 C 7.91 g/m*3 8.6 C 0 km/h
1569 26-06-2014 06:35:00 8.5 C 7.85 g/m*3 8.5 C 0 km/h
1570 26-06-2014 06:40:00 8.4 C 7.8 g/m*3 8.4 C 0 km/h
1571 26-06-2014 06:45:00 8.4 C 7.8 g/m*3 8.4 C 0 km/h
1572 26-06-2014 06:50:00 8.4 C 7.8 g/m*3 8.4 C 0 km/h
1573 26-06-2014 06:55:00 8.4 C 7.8 g/m*3 8.4 C 0 km/h
1574 26-06-2014 07:00:00 8.5 C 7.85 g/m*3 8.5 C 0 km/h
1575 26-06-2014 07:05:00 8.6 C 7.99 g/m*3 8.6 C 0 km/h
Sensor: Nr:Datum:Temp:Abs-Feuchte:Windchill:Wind:
Aussen-T/F 1576 26-06-2014 07:10:00 8.6 C 7.91 g/m*3 8.6 C 0 km/h
1577 26-06-2014 07:15:00 8.7 C 7.96 g/m*3 8.7 C 0 km/h
1578 26-06-2014 07:20:00 8.9 C 8.06 g/m*3 8.9 C 3.2 km/h
1579 26-06-2014 07:25:00 9.2 C 8.13 g/m*3 9.2 C 3.2 km/h
1580 26-06-2014 07:30:00 9.4 C 8.14 g/m*3 9.4 C 1.6 km/h
1581 26-06-2014 07:35:00 9.6 C 8.24 g/m*3 9.6 C 0 km/h
1582 26-06-2014 07:40:00 9.8 C 8.26 g/m*3 9.8 C 0 km/h
1583 26-06-2014 07:45:00 10.1 C 8.32 g/m*3 10.1 C 1.6 km/h
1584 26-06-2014 07:50:00 10.2 C 8.28 g/m*3 10.2 C 1.6 km/h
1585 26-06-2014 07:55:00 10.3 C 8.33 g/m*3 10.3 C 0 km/h
1586 26-06-2014 08:00:00 10.5 C 8.44 g/m*3 10.5 C 1.6 km/h
1587 26-06-2014 08:05:00 10.7 C 8.45 g/m*3 10.7 C 1.6 km/h
1588 26-06-2014 08:10:00 10.8 C 8.4 g/m*3 10.8 C 3.2 km/h
1589 26-06-2014 08:15:00 10.9 C 8.45 g/m*3 10.9 C 0 km/h
1590 26-06-2014 08:20:00 11.1 C 8.56 g/m*3 11.1 C 0 km/h
1591 26-06-2014 08:25:00 11.2 C 8.51 g/m*3 11.2 C 1.6 km/h
1592 26-06-2014 08:30:00 11.3 C 8.57 g/m*3 11.3 C 1.6 km/h
1593 26-06-2014 08:35:00 11.4 C 8.72 g/m*3 11.4 C 0 km/h
1594 26-06-2014 08:40:00 11.6 C 8.63 g/m*3 11.6 C 0 km/h
1595 26-06-2014 08:45:00 11.7 C 8.58 g/m*3 11.7 C 1.6 km/h
1596 26-06-2014 08:50:00 11.9 C 8.68 g/m*3 11.9 C 0 km/h
1597 26-06-2014 08:55:00 12.3 C 8.8 g/m*3 12.3 C 1.6 km/h
1598 26-06-2014 09:00:00 12.6 C 8.85 g/m*3 12.6 C 3.2 km/h
1599 26-06-2014 09:05:00 12.8 C 8.85 g/m*3 12.8 C 1.6 km/h
1600 26-06-2014 09:10:00 13 C 8.96 g/m*3 13 C 1.6 km/h
Sensor: Nr:Datum:Temp:Abs-Feuchte:Windchill:Wind:
Aussen-T/F 1601 26-06-2014 09:15:00 13.3 C 9.24 g/m*3 13.3 C 3.2 km/h
1602 26-06-2014 09:20:00 13.6 C 9.18 g/m*3 13.6 C 0 km/h
1603 26-06-2014 09:25:00 13.8 C 9.17 g/m*3 13.8 C 0 km/h
1604 26-06-2014 09:30:00 13.8 C 9.17 g/m*3 13.8 C 0 km/h
1605 26-06-2014 09:35:00 13.9 C 9.23 g/m*3 13.9 C 0 km/h
1606 26-06-2014 09:40:00 14.1 C 9.34 g/m*3 14.1 C 1.6 km/h
1607 26-06-2014 09:45:00 14.3 C 9.46 g/m*3 14.3 C 3.2 km/h
1608 26-06-2014 09:50:00 14.5 C 9.58 g/m*3 14.5 C 4.8 km/h
1609 26-06-2014 09:55:00 14.8 C 9.63 g/m*3 14.8 C 1.6 km/h
1610 26-06-2014 10:00:00 15.1 C 9.68 g/m*3 15.1 C 0 km/h
1611 26-06-2014 10:05:00 15.6 C 9.97 g/m*3 15.6 C 3.2 km/h
1612 26-06-2014 10:10:00 16.1 C 9.87 g/m*3 16.1 C 3.2 km/h
1613 26-06-2014 10:15:00 16.4 C 9.77 g/m*3 16.4 C 3.2 km/h
1614 26-06-2014 10:20:00 16.7 C 9.95 g/m*3 16.7 C 3.2 km/h
1615 26-06-2014 10:25:00 16.9 C 9.64 g/m*3 16.9 C 4.8 km/h
1616 26-06-2014 10:30:00 17.1 C 9.32 g/m*3 17.1 C 4.8 km/h
1617 26-06-2014 10:35:00 17.3 C 9.58 g/m*3 17.3 C 3.2 km/h
1618 26-06-2014 10:40:00 17.6 C 9.45 g/m*3 17.6 C 4.8 km/h
1619 26-06-2014 10:45:00 17.7 C 9.35 g/m*3 17.7 C 1.6 km/h
1620 26-06-2014 10:50:00 17.9 C 9.01 g/m*3 17.9 C 6.4 km/h
1621 26-06-2014 10:55:00 18.2 C 9.48 g/m*3 18.2 C 8.1 km/h
1622 26-06-2014 11:00:00 18.4 C 9.12 g/m*3 18.4 C 8.1 km/h
1623 26-06-2014 11:05:00 18.6 C 8.91 g/m*3 18.6 C 6.4 km/h
1624 26-06-2014 11:10:00 18.5 C 9.18 g/m*3 18.5 C 6.4 km/h
1625 26-06-2014 11:15:00 18.7 C 9.13 g/m*3 18.7 C 9.7 km/h
Sensor: Nr:Datum:Temp:Abs-Feuchte:Windchill:Wind:
Aussen-T/F 1626 26-06-2014 11:20:00 18.8 C 8.7 g/m*3 18.8 C 6.4 km/h
1627 26-06-2014 11:25:00 18.9 C 8.91 g/m*3 18.9 C 6.4 km/h
1628 26-06-2014 11:30:00 19 C 8.96 g/m*3 19 C 8.1 km/h
1629 26-06-2014 11:35:00 19.2 C 9.07 g/m*3 19.2 C 8.1 km/h
1630 26-06-2014 11:40:00 19.3 C 8.29 g/m*3 19.3 C 4.8 km/h
1631 26-06-2014 11:45:00 19.3 C 8.79 g/m*3 19.3 C 6.4 km/h
1632 26-06-2014 11:50:00 19.4 C 9.01 g/m*3 19.4 C 8.1 km/h
1633 26-06-2014 11:55:00 19.5 C 8.89 g/m*3 19.5 C 8.1 km/h
1634 26-06-2014 12:00:00 19.7 C 8.83 g/m*3 19.7 C 8.1 km/h
1635 26-06-2014 12:05:00 19.6 C 8.61 g/m*3 19.6 C 6.4 km/h
1636 26-06-2014 12:10:00 19.6 C 9.12 g/m*3 19.6 C 6.4 km/h
1637 26-06-2014 12:15:00 19.7 C 9.34 g/m*3 19.7 C 3.2 km/h
1638 26-06-2014 12:20:00 20.2 C 9.09 g/m*3 20.2 C 8.1 km/h
1639 26-06-2014 12:25:00 20.5 C 8.54 g/m*3 20.5 C 9.7 km/h
1640 26-06-2014 12:30:00 20.4 C 8.85 g/m*3 20.4 C 6.4 km/h
1641 26-06-2014 12:35:00 20.6 C 8.77 g/m*3 20.6 C 8.1 km/h
1642 26-06-2014 12:40:00 20.7 C 8.46 g/m*3 20.7 C 6.4 km/h
1643 26-06-2014 12:45:00 20.4 C 8.49 g/m*3 20.4 C 11.3 km/h
1644 26-06-2014 12:50:00 20.3 C 8.62 g/m*3 20.3 C 9.7 km/h
1645 26-06-2014 12:55:00 20.8 C 9.05 g/m*3 20.8 C 12.9 km/h
1646 26-06-2014 13:00:00 21.2 C 8.9 g/m*3 21.2 C 4.8 km/h
1647 26-06-2014 13:05:00 21.5 C 9.43 g/m*3 21.5 C 3.2 km/h
1648 26-06-2014 13:10:00 21.6 C 8.91 g/m*3 21.6 C 11.3 km/h
1649 26-06-2014 13:15:00 21.6 C 8.72 g/m*3 21.6 C 9.7 km/h
1650 26-06-2014 13:20:00 21.7 C 8.39 g/m*3 21.7 C 6.4 km/h
Sensor: Nr:Datum:Temp:Abs-Feuchte:Windchill:Wind:
Aussen-T/F 1651 26-06-2014 13:25:00 21.4 C 8.62 g/m*3 21.4 C 6.4 km/h
1652 26-06-2014 13:30:00 21.6 C 8.72 g/m*3 21.6 C 11.3 km/h
1653 26-06-2014 13:35:00 21.6 C 8.91 g/m*3 21.6 C 11.3 km/h
1654 26-06-2014 13:40:00 21.7 C 9.16 g/m*3 21.7 C 9.7 km/h
1655 26-06-2014 13:45:00 21.9 C 8.88 g/m*3 21.9 C 8.1 km/h
1656 26-06-2014 13:50:00 22.2 C 8.25 g/m*3 22.2 C 8.1 km/h
1657 26-06-2014 13:55:00 22.2 C 8.83 g/m*3 22.2 C 11.3 km/h
1658 26-06-2014 14:00:00 21.9 C 8.1 g/m*3 21.9 C 4.8 km/h
1659 26-06-2014 14:05:00 21.9 C 7.53 g/m*3 21.9 C 4.8 km/h
1660 26-06-2014 14:10:00 21.7 C 8.01 g/m*3 21.7 C 6.4 km/h
1661 26-06-2014 14:15:00 21.7 C 8.39 g/m*3 21.7 C 4.8 km/h
1662 26-06-2014 14:20:00 22 C 9.32 g/m*3 22 C 11.3 km/h
1663 26-06-2014 14:25:00 22.3 C 8.69 g/m*3 22.3 C 8.1 km/h
1664 26-06-2014 14:30:00 22.5 C 8.79 g/m*3 22.5 C 11.3 km/h
1665 26-06-2014 14:35:00 22.6 C 8.64 g/m*3 22.6 C 8.1 km/h
1666 26-06-2014 14:40:00 22.8 C 8.94 g/m*3 22.8 C 11.3 km/h
1667 26-06-2014 14:45:00 22.8 C 8.33 g/m*3 22.8 C 6.4 km/h
1668 26-06-2014 14:50:00 22.8 C 7.92 g/m*3 22.8 C 6.4 km/h
1669 26-06-2014 14:55:00 22.7 C 8.08 g/m*3 22.7 C 6.4 km/h
1670 26-06-2014 15:00:00 22.6 C 8.04 g/m*3 22.6 C 6.4 km/h
1671 26-06-2014 15:05:00 22.7 C 8.49 g/m*3 22.7 C 11.3 km/h
1672 26-06-2014 15:10:00 23.2 C 7.9 g/m*3 23.2 C 14.5 km/h
1673 26-06-2014 15:15:00 23.3 C 8.15 g/m*3 23.3 C 6.4 km/h
1674 26-06-2014 15:20:00 23.2 C 7.69 g/m*3 23.2 C 6.4 km/h
1675 26-06-2014 15:25:00 23.1 C 7.65 g/m*3 23.1 C 4.8 km/h
Sensor: Nr:Datum:Temp:Abs-Feuchte:Windchill:Wind:
Aussen-T/F 1676 26-06-2014 15:30:00 23.1 C 8.27 g/m*3 23.1 C 11.3 km/h
1677 26-06-2014 15:35:00 23.2 C 8.11 g/m*3 23.2 C 6.4 km/h
1678 26-06-2014 15:40:00 23.1 C 8.27 g/m*3 23.1 C 9.7 km/h
1679 26-06-2014 15:45:00 23.2 C 8.32 g/m*3 23.2 C 12.9 km/h
1680 26-06-2014 15:50:00 23.1 C 8.27 g/m*3 23.1 C 9.7 km/h
1681 26-06-2014 15:55:00 22.9 C 8.17 g/m*3 22.9 C 4.8 km/h
1682 26-06-2014 16:00:00 22.7 C 8.08 g/m*3 22.7 C 6.4 km/h
1683 26-06-2014 16:05:00 22.8 C 7.72 g/m*3 22.8 C 4.8 km/h
1684 26-06-2014 16:10:00 23.1 C 7.65 g/m*3 23.1 C 8.1 km/h
1685 26-06-2014 16:15:00 23.3 C 7.74 g/m*3 23.3 C 6.4 km/h
1686 26-06-2014 16:20:00 23.7 C 7.49 g/m*3 23.7 C 11.3 km/h
1687 26-06-2014 16:25:00 23.8 C 7.74 g/m*3 23.8 C 4.8 km/h
1688 26-06-2014 16:30:00 24.2 C 7.7 g/m*3 24.2 C 9.7 km/h
1689 26-06-2014 16:35:00 24.3 C 7.52 g/m*3 24.3 C 8.1 km/h
1690 26-06-2014 16:40:00 24.2 C 7.26 g/m*3 24.2 C 6.4 km/h
1691 26-06-2014 16:45:00 24.3 C 7.75 g/m*3 24.3 C 9.7 km/h
1692 26-06-2014 16:50:00 24.4 C 7.57 g/m*3 24.4 C 9.7 km/h
1693 26-06-2014 16:55:00 24.1 C 7.44 g/m*3 24.1 C 6.4 km/h
1694 26-06-2014 17:00:00 23.7 C 7.06 g/m*3 23.7 C 6.4 km/h
1695 26-06-2014 17:05:00 23.2 C 7.28 g/m*3 23.2 C 6.4 km/h
1696 26-06-2014 17:10:00 23.1 C 7.65 g/m*3 23.1 C 4.8 km/h
1697 26-06-2014 17:15:00 23.5 C 7.82 g/m*3 23.5 C 8.1 km/h
1698 26-06-2014 17:20:00 24.2 C 7.92 g/m*3 24.2 C 6.4 km/h
1699 26-06-2014 17:25:00 24.2 C 7.48 g/m*3 24.2 C 11.3 km/h
1700 26-06-2014 17:30:00 23.8 C 7.53 g/m*3 23.8 C 8.1 km/h
Sensor: Nr:Datum:Temp:Abs-Feuchte:Windchill:Wind:
Aussen-T/F 1701 26-06-2014 17:35:00 23.4 C 7.36 g/m*3 23.4 C 4.8 km/h
1702 26-06-2014 17:40:00 23.4 C 7.99 g/m*3 23.4 C 8.1 km/h
1703 26-06-2014 17:45:00 23.7 C 7.49 g/m*3 23.7 C 6.4 km/h
1704 26-06-2014 17:50:00 23.9 C 7.79 g/m*3 23.9 C 9.7 km/h
1705 26-06-2014 17:55:00 24.2 C 7.7 g/m*3 24.2 C 8.1 km/h
1706 26-06-2014 18:00:00 24.2 C 7.7 g/m*3 24.2 C 8.1 km/h
1707 26-06-2014 18:05:00 24.1 C 7.44 g/m*3 24.1 C 6.4 km/h
1708 26-06-2014 18:10:00 24.1 C 7 g/m*3 24.1 C 6.4 km/h
1709 26-06-2014 18:15:00 24.1 C 7.66 g/m*3 24.1 C 3.2 km/h
1710 26-06-2014 18:20:00 24.3 C 7.75 g/m*3 24.3 C 9.7 km/h
1711 26-06-2014 18:25:00 24.6 C 7.43 g/m*3 24.6 C 9.7 km/h
1712 26-06-2014 18:30:00 24.6 C 7.65 g/m*3 24.6 C 8.1 km/h
1713 26-06-2014 18:35:00 24.5 C 7.39 g/m*3 24.5 C 4.8 km/h
1714 26-06-2014 18:40:00 24.6 C 7.65 g/m*3 24.6 C 6.4 km/h
1715 26-06-2014 18:45:00 24.7 C 7.7 g/m*3 24.7 C 8.1 km/h
1716 26-06-2014 18:50:00 24.7 C 7.47 g/m*3 24.7 C 8.1 km/h
1717 26-06-2014 18:55:00 24.4 C 7.34 g/m*3 24.4 C 6.4 km/h
1718 26-06-2014 19:00:00 24.4 C 7.34 g/m*3 24.4 C 6.4 km/h
1719 26-06-2014 19:05:00 24.4 C 7.57 g/m*3 24.4 C 8.1 km/h
1720 26-06-2014 19:10:00 24.3 C 6.86 g/m*3 24.3 C 4.8 km/h
1721 26-06-2014 19:15:00 24.2 C 7.26 g/m*3 24.2 C 4.8 km/h
1722 26-06-2014 19:20:00 24.1 C 7 g/m*3 24.1 C 3.2 km/h
1723 26-06-2014 19:25:00 23.7 C 7.06 g/m*3 23.7 C 4.8 km/h
1724 26-06-2014 19:30:00 23.3 C 7.32 g/m*3 23.3 C 3.2 km/h
1725 26-06-2014 19:35:00 23.1 C 6.82 g/m*3 23.1 C 3.2 km/h
Sensor: Nr:Datum:Temp:Abs-Feuchte:Windchill:Wind:
Aussen-T/F 1726 26-06-2014 19:40:00 22.9 C 6.95 g/m*3 22.9 C 3.2 km/h
1727 26-06-2014 19:45:00 22.8 C 6.71 g/m*3 22.8 C 3.2 km/h
1728 26-06-2014 19:50:00 22.7 C 6.87 g/m*3 22.7 C 1.6 km/h
1729 26-06-2014 19:55:00 22.6 C 7.23 g/m*3 22.6 C 4.8 km/h
1730 26-06-2014 20:00:00 22.7 C 7.07 g/m*3 22.7 C 4.8 km/h
1731 26-06-2014 20:05:00 22.7 C 7.07 g/m*3 22.7 C 3.2 km/h
1732 26-06-2014 20:10:00 22.6 C 7.03 g/m*3 22.6 C 3.2 km/h
1733 26-06-2014 20:15:00 22.4 C 7.15 g/m*3 22.4 C 4.8 km/h
1734 26-06-2014 20:20:00 22.3 C 7.11 g/m*3 22.3 C 4.8 km/h
1735 26-06-2014 20:25:00 22.2 C 8.83 g/m*3 22.2 C 1.6 km/h
1736 26-06-2014 20:30:00 22 C 8.93 g/m*3 22 C 1.6 km/h
1737 26-06-2014 20:35:00 21.6 C 8.91 g/m*3 21.6 C 1.6 km/h
1738 26-06-2014 20:40:00 20.9 C 8.92 g/m*3 20.9 C 0 km/h
1739 26-06-2014 20:45:00 20.3 C 8.97 g/m*3 20.3 C 0 km/h
1740 26-06-2014 20:50:00 19.7 C 9 g/m*3 19.7 C 0 km/h
1741 26-06-2014 20:55:00 19.2 C 8.9 g/m*3 19.2 C 0 km/h
1742 26-06-2014 21:00:00 19 C 9.13 g/m*3 19 C 0 km/h
1743 26-06-2014 21:05:00 18.8 C 9.18 g/m*3 18.8 C 1.6 km/h
1744 26-06-2014 21:10:00 18.7 C 9.13 g/m*3 18.7 C 0 km/h
1745 26-06-2014 21:15:00 18.4 C 9.12 g/m*3 18.4 C 0 km/h
1746 26-06-2014 21:20:00 18.1 C 8.96 g/m*3 18.1 C 0 km/h
1747 26-06-2014 21:25:00 17.8 C 8.8 g/m*3 17.8 C 0 km/h
1748 26-06-2014 21:30:00 17.6 C 8.7 g/m*3 17.6 C 1.6 km/h
1749 26-06-2014 21:35:00 17.5 C 8.65 g/m*3 17.5 C 0 km/h
1750 26-06-2014 21:40:00 17.3 C 8.54 g/m*3 17.3 C 0 km/h
Sensor: Nr:Datum:Temp:Abs-Feuchte:Windchill:Wind:
Aussen-T/F 1751 26-06-2014 21:45:00 17.1 C 8.44 g/m*3 17.1 C 0 km/h
1752 26-06-2014 21:50:00 16.9 C 8.34 g/m*3 16.9 C 0 km/h
1753 26-06-2014 21:55:00 16.9 C 8.49 g/m*3 16.9 C 0 km/h
1754 26-06-2014 22:00:00 16.7 C 8.53 g/m*3 16.7 C 0 km/h
1755 26-06-2014 22:05:00 16.5 C 8.43 g/m*3 16.5 C 0 km/h
1756 26-06-2014 22:10:00 16.4 C 8.37 g/m*3 16.4 C 0 km/h
1757 26-06-2014 22:15:00 16.3 C 8.46 g/m*3 16.3 C 1.6 km/h
1758 26-06-2014 22:20:00 16.2 C 8.41 g/m*3 16.2 C 0 km/h
1759 26-06-2014 22:25:00 16 C 8.45 g/m*3 16 C 0 km/h
1760 26-06-2014 22:30:00 15.9 C 8.4 g/m*3 15.9 C 0 km/h
1761 26-06-2014 22:35:00 15.8 C 8.35 g/m*3 15.8 C 1.6 km/h
1762 26-06-2014 22:40:00 15.8 C 8.35 g/m*3 15.8 C 0 km/h
1763 26-06-2014 22:45:00 15.7 C 8.56 g/m*3 15.7 C 0 km/h
1764 26-06-2014 22:50:00 15.5 C 8.59 g/m*3 15.5 C 0 km/h
1765 26-06-2014 22:55:00 15.4 C 8.67 g/m*3 15.4 C 0 km/h
1766 26-06-2014 23:00:00 15.3 C 8.62 g/m*3 15.3 C 1.6 km/h
1767 26-06-2014 23:05:00 15.3 C 8.49 g/m*3 15.3 C 0 km/h
1768 26-06-2014 23:10:00 15.2 C 8.44 g/m*3 15.2 C 0 km/h
1769 26-06-2014 23:15:00 15.1 C 8.51 g/m*3 15.1 C 1.6 km/h
1770 26-06-2014 23:20:00 15.1 C 8.51 g/m*3 15.1 C 0 km/h
1771 26-06-2014 23:25:00 14.9 C 8.41 g/m*3 14.9 C 0 km/h
1772 26-06-2014 23:30:00 14.9 C 8.41 g/m*3 14.9 C 0 km/h
1773 26-06-2014 23:35:00 14.8 C 8.36 g/m*3 14.8 C 0 km/h
1774 26-06-2014 23:40:00 14.7 C 8.44 g/m*3 14.7 C 0 km/h
1775 26-06-2014 23:45:00 14.6 C 8.38 g/m*3 14.6 C 0 km/h
Sensor: Nr:Datum:Temp:Abs-Feuchte:Windchill:Wind:
Aussen-T/F 1776 26-06-2014 23:50:00 14.5 C 8.46 g/m*3 14.5 C 0 km/h
1777 26-06-2014 23:55:00 14.4 C 8.41 g/m*3 14.4 C 0 km/h

Legende:
   Min
   Max


Maximal/Minimal-Werte vom 20.06.2014 - 26.06.2014

Sensor Min Max Avg
Temp
(Aussen-T/F)
8.4 °C
26-06-2014  05:05:00
24.7 °C
23-06-2014  16:45:00
16.6 °C
Abs-Feuchte
(Aussen-T/F)
6.71 g/m*3
26-06-2014  19:45:00
13.17 g/m*3
24-06-2014  17:40:00
8.93 g/m*3
Windchill
(Aussen-T/F)
8.4 C
26-06-2014  05:05:00
24.7 C
23-06-2014  16:45:00
16.59 C

Die Daten stammen von einer Davis Vantage Pro 2 Wetter-Station und werden unter Linux mit der Software wview2wettercgi und aufbereitet. Alle Angaben erfolgen ohne Gewähr für ihre Vollständigkeit oder Richtigkeit.
Kontakt: Rainer Krienke krienke@uni-koblenz.de . Meine Webseiten an der Uni Koblenz oder privat.
Version: $Revision: 0.78 $